<?xml version="1.0" encoding="UTF-8" standalone="no" ?>
<gpx xmlns="http://www.topografix.com/GPX/1/1" xmlns:xsi="http://www.w3.org/2001/XMLSchema-instance" xsi:schemaLocation="http://www.topografix.com/GPX/1/1 http://www.topografix.com/GPX/1/1/gpx.xsd" version="1.1" creator="VisuGPX - https://www.visugpx.com">
  <metadata>
    <name>ARBONNE-LA-FORÊT</name>
    <desc><![CDATA[Arbonne-la-Forêt avec Michel VALLUET]]></desc>
  </metadata>
  <trk>
    <name><![CDATA[--Arbonne-la-Forêt-- OR-5386256:Arbonne-La-Forêt 2]]></name>
    <trkseg>
      <trkpt lat="48.3905" lon="2.55278">
        <ele>78</ele>
        <time>2016-02-21T19:05:28Z</time>
      </trkpt>
      <trkpt lat="48.3905" lon="2.55261">
        <ele>78</ele>
        <time>2016-02-21T19:07:28Z</time>
      </trkpt>
      <trkpt lat="48.39071" lon="2.55233">
        <ele>78</ele>
        <time>2016-02-21T19:09:28Z</time>
      </trkpt>
      <trkpt lat="48.39103" lon="2.55238">
        <ele>78</ele>
        <time>2016-02-21T19:11:28Z</time>
      </trkpt>
      <trkpt lat="48.39125" lon="2.55246">
        <ele>79</ele>
        <time>2016-02-21T19:13:28Z</time>
      </trkpt>
      <trkpt lat="48.39142" lon="2.55239">
        <ele>80</ele>
        <time>2016-02-21T19:15:28Z</time>
      </trkpt>
      <trkpt lat="48.39156" lon="2.55218">
        <ele>81</ele>
        <time>2016-02-21T19:17:28Z</time>
      </trkpt>
      <trkpt lat="48.39164" lon="2.55173">
        <ele>82</ele>
        <time>2016-02-21T19:19:28Z</time>
      </trkpt>
      <trkpt lat="48.39179" lon="2.55184">
        <ele>82</ele>
        <time>2016-02-21T19:21:28Z</time>
      </trkpt>
      <trkpt lat="48.39192" lon="2.55189">
        <ele>81</ele>
        <time>2016-02-21T19:23:28Z</time>
      </trkpt>
      <trkpt lat="48.39199" lon="2.55176">
        <ele>81</ele>
        <time>2016-02-21T19:25:28Z</time>
      </trkpt>
      <trkpt lat="48.39202" lon="2.55156">
        <ele>81</ele>
        <time>2016-02-21T19:27:28Z</time>
      </trkpt>
      <trkpt lat="48.39198" lon="2.55136">
        <ele>81</ele>
        <time>2016-02-21T19:29:28Z</time>
      </trkpt>
      <trkpt lat="48.39203" lon="2.55117">
        <ele>81</ele>
        <time>2016-02-21T19:31:28Z</time>
      </trkpt>
      <trkpt lat="48.39212" lon="2.55096">
        <ele>81</ele>
        <time>2016-02-21T19:33:28Z</time>
      </trkpt>
      <trkpt lat="48.39225" lon="2.55088">
        <ele>80</ele>
        <time>2016-02-21T19:35:28Z</time>
      </trkpt>
      <trkpt lat="48.39235" lon="2.55099">
        <ele>80</ele>
        <time>2016-02-21T19:37:28Z</time>
      </trkpt>
      <trkpt lat="48.39235" lon="2.55116">
        <ele>81</ele>
        <time>2016-02-21T19:39:28Z</time>
      </trkpt>
      <trkpt lat="48.39252" lon="2.55123">
        <ele>80</ele>
        <time>2016-02-21T19:41:28Z</time>
      </trkpt>
      <trkpt lat="48.39263" lon="2.55132">
        <ele>80</ele>
        <time>2016-02-21T19:43:28Z</time>
      </trkpt>
      <trkpt lat="48.3927" lon="2.55143">
        <ele>80</ele>
        <time>2016-02-21T19:45:28Z</time>
      </trkpt>
      <trkpt lat="48.3928" lon="2.5516">
        <ele>81</ele>
        <time>2016-02-21T19:47:28Z</time>
      </trkpt>
      <trkpt lat="48.39286" lon="2.5517">
        <ele>81</ele>
        <time>2016-02-21T19:49:28Z</time>
      </trkpt>
      <trkpt lat="48.39292" lon="2.55185">
        <ele>80</ele>
        <time>2016-02-21T19:51:28Z</time>
      </trkpt>
      <trkpt lat="48.39299" lon="2.55207">
        <ele>80</ele>
        <time>2016-02-21T19:53:28Z</time>
      </trkpt>
      <trkpt lat="48.39306" lon="2.55219">
        <ele>79</ele>
        <time>2016-02-21T19:55:28Z</time>
      </trkpt>
      <trkpt lat="48.39315" lon="2.55226">
        <ele>79</ele>
        <time>2016-02-21T19:57:28Z</time>
      </trkpt>
      <trkpt lat="48.39331" lon="2.55231">
        <ele>79</ele>
        <time>2016-02-21T19:59:28Z</time>
      </trkpt>
      <trkpt lat="48.39348" lon="2.55232">
        <ele>79</ele>
        <time>2016-02-21T20:01:28Z</time>
      </trkpt>
      <trkpt lat="48.39361" lon="2.55231">
        <ele>79</ele>
        <time>2016-02-21T20:03:28Z</time>
      </trkpt>
      <trkpt lat="48.39372" lon="2.55221">
        <ele>79</ele>
        <time>2016-02-21T20:05:28Z</time>
      </trkpt>
      <trkpt lat="48.39385" lon="2.55225">
        <ele>78</ele>
        <time>2016-02-21T20:07:28Z</time>
      </trkpt>
      <trkpt lat="48.39396" lon="2.55229">
        <ele>78</ele>
        <time>2016-02-21T20:09:28Z</time>
      </trkpt>
      <trkpt lat="48.39399" lon="2.55205">
        <ele>78</ele>
        <time>2016-02-21T20:11:28Z</time>
      </trkpt>
      <trkpt lat="48.39407" lon="2.55205">
        <ele>78</ele>
        <time>2016-02-21T20:13:28Z</time>
      </trkpt>
      <trkpt lat="48.39416" lon="2.55193">
        <ele>78</ele>
        <time>2016-02-21T20:15:28Z</time>
      </trkpt>
      <trkpt lat="48.39425" lon="2.55179">
        <ele>78</ele>
        <time>2016-02-21T20:17:28Z</time>
      </trkpt>
      <trkpt lat="48.39432" lon="2.55163">
        <ele>78</ele>
        <time>2016-02-21T20:19:28Z</time>
      </trkpt>
      <trkpt lat="48.39436" lon="2.55147">
        <ele>79</ele>
        <time>2016-02-21T20:21:28Z</time>
      </trkpt>
      <trkpt lat="48.39437" lon="2.55125">
        <ele>80</ele>
        <time>2016-02-21T20:23:28Z</time>
      </trkpt>
      <trkpt lat="48.39441" lon="2.55113">
        <ele>80</ele>
        <time>2016-02-21T20:25:28Z</time>
      </trkpt>
      <trkpt lat="48.3945" lon="2.55105">
        <ele>80</ele>
        <time>2016-02-21T20:27:28Z</time>
      </trkpt>
      <trkpt lat="48.39455" lon="2.55086">
        <ele>80</ele>
        <time>2016-02-21T20:29:28Z</time>
      </trkpt>
      <trkpt lat="48.39456" lon="2.55072">
        <ele>80</ele>
        <time>2016-02-21T20:31:28Z</time>
      </trkpt>
      <trkpt lat="48.39452" lon="2.55061">
        <ele>81</ele>
        <time>2016-02-21T20:33:28Z</time>
      </trkpt>
      <trkpt lat="48.39451" lon="2.55047">
        <ele>81</ele>
        <time>2016-02-21T20:35:28Z</time>
      </trkpt>
      <trkpt lat="48.39453" lon="2.55035">
        <ele>82</ele>
        <time>2016-02-21T20:37:28Z</time>
      </trkpt>
      <trkpt lat="48.39452" lon="2.55021">
        <ele>82</ele>
        <time>2016-02-21T20:39:28Z</time>
      </trkpt>
      <trkpt lat="48.39451" lon="2.5501">
        <ele>83</ele>
        <time>2016-02-21T20:41:28Z</time>
      </trkpt>
      <trkpt lat="48.39458" lon="2.54982">
        <ele>84</ele>
        <time>2016-02-21T20:43:28Z</time>
      </trkpt>
      <trkpt lat="48.39463" lon="2.54958">
        <ele>85</ele>
        <time>2016-02-21T20:45:28Z</time>
      </trkpt>
      <trkpt lat="48.39453" lon="2.54937">
        <ele>87</ele>
        <time>2016-02-21T20:47:28Z</time>
      </trkpt>
      <trkpt lat="48.3945" lon="2.54921">
        <ele>89</ele>
        <time>2016-02-21T20:49:28Z</time>
      </trkpt>
      <trkpt lat="48.39454" lon="2.54901">
        <ele>91</ele>
        <time>2016-02-21T20:51:28Z</time>
      </trkpt>
      <trkpt lat="48.39457" lon="2.54884">
        <ele>93</ele>
        <time>2016-02-21T20:53:28Z</time>
      </trkpt>
      <trkpt lat="48.39465" lon="2.5487">
        <ele>94</ele>
        <time>2016-02-21T20:55:28Z</time>
      </trkpt>
      <trkpt lat="48.3947" lon="2.54861">
        <ele>95</ele>
        <time>2016-02-21T20:57:28Z</time>
      </trkpt>
      <trkpt lat="48.39466" lon="2.54843">
        <ele>98</ele>
        <time>2016-02-21T20:59:28Z</time>
      </trkpt>
      <trkpt lat="48.39457" lon="2.54826">
        <ele>101</ele>
        <time>2016-02-21T21:01:28Z</time>
      </trkpt>
      <trkpt lat="48.39466" lon="2.54816">
        <ele>101</ele>
        <time>2016-02-21T21:03:28Z</time>
      </trkpt>
      <trkpt lat="48.39471" lon="2.54799">
        <ele>102</ele>
        <time>2016-02-21T21:05:28Z</time>
      </trkpt>
      <trkpt lat="48.3948" lon="2.54775">
        <ele>103</ele>
        <time>2016-02-21T21:07:28Z</time>
      </trkpt>
      <trkpt lat="48.39473" lon="2.54761">
        <ele>105</ele>
        <time>2016-02-21T21:09:28Z</time>
      </trkpt>
      <trkpt lat="48.39465" lon="2.54762">
        <ele>105</ele>
        <time>2016-02-21T21:11:28Z</time>
      </trkpt>
      <trkpt lat="48.39459" lon="2.54773">
        <ele>105</ele>
        <time>2016-02-21T21:13:28Z</time>
      </trkpt>
      <trkpt lat="48.39451" lon="2.54782">
        <ele>105</ele>
        <time>2016-02-21T21:15:28Z</time>
      </trkpt>
      <trkpt lat="48.39443" lon="2.54785">
        <ele>105</ele>
        <time>2016-02-21T21:17:28Z</time>
      </trkpt>
      <trkpt lat="48.39442" lon="2.54767">
        <ele>107</ele>
        <time>2016-02-21T21:19:28Z</time>
      </trkpt>
      <trkpt lat="48.39437" lon="2.54744">
        <ele>109</ele>
        <time>2016-02-21T21:21:28Z</time>
      </trkpt>
      <trkpt lat="48.39442" lon="2.54725">
        <ele>109</ele>
        <time>2016-02-21T21:23:28Z</time>
      </trkpt>
      <trkpt lat="48.39447" lon="2.54717">
        <ele>108</ele>
        <time>2016-02-21T21:25:28Z</time>
      </trkpt>
      <trkpt lat="48.39454" lon="2.54711">
        <ele>108</ele>
        <time>2016-02-21T21:27:28Z</time>
      </trkpt>
      <trkpt lat="48.39456" lon="2.54688">
        <ele>109</ele>
        <time>2016-02-21T21:29:28Z</time>
      </trkpt>
      <trkpt lat="48.39459" lon="2.54652">
        <ele>110</ele>
        <time>2016-02-21T21:31:28Z</time>
      </trkpt>
      <trkpt lat="48.39464" lon="2.54621">
        <ele>112</ele>
        <time>2016-02-21T21:33:28Z</time>
      </trkpt>
      <trkpt lat="48.39471" lon="2.54607">
        <ele>113</ele>
        <time>2016-02-21T21:35:28Z</time>
      </trkpt>
      <trkpt lat="48.39474" lon="2.54599">
        <ele>114</ele>
        <time>2016-02-21T21:37:28Z</time>
      </trkpt>
      <trkpt lat="48.39484" lon="2.54601">
        <ele>114</ele>
        <time>2016-02-21T21:39:28Z</time>
      </trkpt>
      <trkpt lat="48.39492" lon="2.546">
        <ele>115</ele>
        <time>2016-02-21T21:41:28Z</time>
      </trkpt>
      <trkpt lat="48.39501" lon="2.54604">
        <ele>115</ele>
        <time>2016-02-21T21:43:28Z</time>
      </trkpt>
      <trkpt lat="48.39507" lon="2.54584">
        <ele>115</ele>
        <time>2016-02-21T21:45:28Z</time>
      </trkpt>
      <trkpt lat="48.39509" lon="2.54569">
        <ele>114</ele>
        <time>2016-02-21T21:47:28Z</time>
      </trkpt>
      <trkpt lat="48.39514" lon="2.54561">
        <ele>112</ele>
        <time>2016-02-21T21:49:28Z</time>
      </trkpt>
      <trkpt lat="48.39526" lon="2.54557">
        <ele>109</ele>
        <time>2016-02-21T21:51:28Z</time>
      </trkpt>
      <trkpt lat="48.39537" lon="2.54553">
        <ele>106</ele>
        <time>2016-02-21T21:53:28Z</time>
      </trkpt>
      <trkpt lat="48.39543" lon="2.5455">
        <ele>104</ele>
        <time>2016-02-21T21:55:28Z</time>
      </trkpt>
      <trkpt lat="48.3955" lon="2.54549">
        <ele>103</ele>
        <time>2016-02-21T21:57:28Z</time>
      </trkpt>
      <trkpt lat="48.39554" lon="2.54555">
        <ele>102</ele>
        <time>2016-02-21T21:59:28Z</time>
      </trkpt>
      <trkpt lat="48.39555" lon="2.54568">
        <ele>101</ele>
        <time>2016-02-21T22:01:28Z</time>
      </trkpt>
      <trkpt lat="48.39552" lon="2.54592">
        <ele>101</ele>
        <time>2016-02-21T22:03:28Z</time>
      </trkpt>
      <trkpt lat="48.39558" lon="2.54596">
        <ele>99</ele>
        <time>2016-02-21T22:05:28Z</time>
      </trkpt>
      <trkpt lat="48.39565" lon="2.54594">
        <ele>98</ele>
        <time>2016-02-21T22:07:28Z</time>
      </trkpt>
      <trkpt lat="48.39572" lon="2.54589">
        <ele>96</ele>
        <time>2016-02-21T22:09:28Z</time>
      </trkpt>
      <trkpt lat="48.39577" lon="2.54578">
        <ele>95</ele>
        <time>2016-02-21T22:11:28Z</time>
      </trkpt>
      <trkpt lat="48.3958" lon="2.54566">
        <ele>95</ele>
        <time>2016-02-21T22:13:28Z</time>
      </trkpt>
      <trkpt lat="48.39588" lon="2.54557">
        <ele>93</ele>
        <time>2016-02-21T22:15:28Z</time>
      </trkpt>
      <trkpt lat="48.39596" lon="2.54547">
        <ele>92</ele>
        <time>2016-02-21T22:17:28Z</time>
      </trkpt>
      <trkpt lat="48.39596" lon="2.54534">
        <ele>93</ele>
        <time>2016-02-21T22:19:28Z</time>
      </trkpt>
      <trkpt lat="48.39591" lon="2.54522">
        <ele>94</ele>
        <time>2016-02-21T22:21:28Z</time>
      </trkpt>
      <trkpt lat="48.39587" lon="2.54509">
        <ele>95</ele>
        <time>2016-02-21T22:23:28Z</time>
      </trkpt>
      <trkpt lat="48.39581" lon="2.54501">
        <ele>96</ele>
        <time>2016-02-21T22:25:28Z</time>
      </trkpt>
      <trkpt lat="48.39572" lon="2.54496">
        <ele>98</ele>
        <time>2016-02-21T22:27:28Z</time>
      </trkpt>
      <trkpt lat="48.39575" lon="2.54489">
        <ele>98</ele>
        <time>2016-02-21T22:29:28Z</time>
      </trkpt>
      <trkpt lat="48.39577" lon="2.54474">
        <ele>98</ele>
        <time>2016-02-21T22:31:28Z</time>
      </trkpt>
      <trkpt lat="48.39564" lon="2.54464">
        <ele>101</ele>
        <time>2016-02-21T22:33:28Z</time>
      </trkpt>
      <trkpt lat="48.39566" lon="2.54444">
        <ele>101</ele>
        <time>2016-02-21T22:35:28Z</time>
      </trkpt>
      <trkpt lat="48.39566" lon="2.54423">
        <ele>102</ele>
        <time>2016-02-21T22:37:28Z</time>
      </trkpt>
      <trkpt lat="48.39575" lon="2.54412">
        <ele>101</ele>
        <time>2016-02-21T22:39:28Z</time>
      </trkpt>
      <trkpt lat="48.39587" lon="2.54402">
        <ele>100</ele>
        <time>2016-02-21T22:41:28Z</time>
      </trkpt>
      <trkpt lat="48.39592" lon="2.54389">
        <ele>100</ele>
        <time>2016-02-21T22:43:28Z</time>
      </trkpt>
      <trkpt lat="48.39597" lon="2.54371">
        <ele>101</ele>
        <time>2016-02-21T22:45:28Z</time>
      </trkpt>
      <trkpt lat="48.396" lon="2.54356">
        <ele>101</ele>
        <time>2016-02-21T22:47:28Z</time>
      </trkpt>
      <trkpt lat="48.39603" lon="2.54342">
        <ele>102</ele>
        <time>2016-02-21T22:49:28Z</time>
      </trkpt>
      <trkpt lat="48.39613" lon="2.54327">
        <ele>101</ele>
        <time>2016-02-21T22:51:28Z</time>
      </trkpt>
      <trkpt lat="48.39607" lon="2.5432">
        <ele>103</ele>
        <time>2016-02-21T22:53:28Z</time>
      </trkpt>
      <trkpt lat="48.3958" lon="2.54321">
        <ele>109</ele>
        <time>2016-02-21T22:55:28Z</time>
      </trkpt>
      <trkpt lat="48.39567" lon="2.54324">
        <ele>110</ele>
        <time>2016-02-21T22:57:28Z</time>
      </trkpt>
      <trkpt lat="48.3956" lon="2.54328">
        <ele>111</ele>
        <time>2016-02-21T22:59:28Z</time>
      </trkpt>
      <trkpt lat="48.39557" lon="2.54335">
        <ele>111</ele>
        <time>2016-02-21T23:01:28Z</time>
      </trkpt>
      <trkpt lat="48.39552" lon="2.54343">
        <ele>111</ele>
        <time>2016-02-21T23:03:28Z</time>
      </trkpt>
      <trkpt lat="48.39544" lon="2.54349">
        <ele>111</ele>
        <time>2016-02-21T23:05:28Z</time>
      </trkpt>
      <trkpt lat="48.39538" lon="2.54356">
        <ele>111</ele>
        <time>2016-02-21T23:07:28Z</time>
      </trkpt>
      <trkpt lat="48.39536" lon="2.54366">
        <ele>111</ele>
        <time>2016-02-21T23:09:28Z</time>
      </trkpt>
      <trkpt lat="48.3953" lon="2.54362">
        <ele>112</ele>
        <time>2016-02-21T23:11:28Z</time>
      </trkpt>
      <trkpt lat="48.39525" lon="2.54352">
        <ele>113</ele>
        <time>2016-02-21T23:13:28Z</time>
      </trkpt>
      <trkpt lat="48.3953" lon="2.54339">
        <ele>113</ele>
        <time>2016-02-21T23:15:28Z</time>
      </trkpt>
      <trkpt lat="48.39534" lon="2.54319">
        <ele>114</ele>
        <time>2016-02-21T23:17:28Z</time>
      </trkpt>
      <trkpt lat="48.39536" lon="2.54305">
        <ele>114</ele>
        <time>2016-02-21T23:19:28Z</time>
      </trkpt>
      <trkpt lat="48.39546" lon="2.54274">
        <ele>115</ele>
        <time>2016-02-21T23:21:28Z</time>
      </trkpt>
      <trkpt lat="48.39561" lon="2.54248">
        <ele>115</ele>
        <time>2016-02-21T23:23:28Z</time>
      </trkpt>
      <trkpt lat="48.39567" lon="2.54207">
        <ele>115</ele>
        <time>2016-02-21T23:25:28Z</time>
      </trkpt>
      <trkpt lat="48.39578" lon="2.542">
        <ele>115</ele>
        <time>2016-02-21T23:27:28Z</time>
      </trkpt>
      <trkpt lat="48.39588" lon="2.54192">
        <ele>113</ele>
        <time>2016-02-21T23:29:28Z</time>
      </trkpt>
      <trkpt lat="48.39596" lon="2.54185">
        <ele>111</ele>
        <time>2016-02-21T23:31:28Z</time>
      </trkpt>
      <trkpt lat="48.39599" lon="2.5417">
        <ele>110</ele>
        <time>2016-02-21T23:33:28Z</time>
      </trkpt>
      <trkpt lat="48.39601" lon="2.54157">
        <ele>110</ele>
        <time>2016-02-21T23:35:28Z</time>
      </trkpt>
      <trkpt lat="48.39608" lon="2.54148">
        <ele>109</ele>
        <time>2016-02-21T23:37:28Z</time>
      </trkpt>
      <trkpt lat="48.39609" lon="2.54135">
        <ele>109</ele>
        <time>2016-02-21T23:39:28Z</time>
      </trkpt>
      <trkpt lat="48.39609" lon="2.54122">
        <ele>109</ele>
        <time>2016-02-21T23:41:28Z</time>
      </trkpt>
      <trkpt lat="48.39612" lon="2.54113">
        <ele>109</ele>
        <time>2016-02-21T23:43:28Z</time>
      </trkpt>
      <trkpt lat="48.39622" lon="2.541">
        <ele>106</ele>
        <time>2016-02-21T23:45:28Z</time>
      </trkpt>
      <trkpt lat="48.39622" lon="2.54091">
        <ele>107</ele>
        <time>2016-02-21T23:47:28Z</time>
      </trkpt>
      <trkpt lat="48.39623" lon="2.5408">
        <ele>107</ele>
        <time>2016-02-21T23:49:28Z</time>
      </trkpt>
      <trkpt lat="48.3963" lon="2.54078">
        <ele>105</ele>
        <time>2016-02-21T23:51:28Z</time>
      </trkpt>
      <trkpt lat="48.39636" lon="2.54069">
        <ele>103</ele>
        <time>2016-02-21T23:53:28Z</time>
      </trkpt>
      <trkpt lat="48.3964" lon="2.54057">
        <ele>103</ele>
        <time>2016-02-21T23:55:28Z</time>
      </trkpt>
      <trkpt lat="48.39639" lon="2.54043">
        <ele>104</ele>
        <time>2016-02-21T23:57:28Z</time>
      </trkpt>
      <trkpt lat="48.39632" lon="2.54038">
        <ele>106</ele>
        <time>2016-02-21T23:59:28Z</time>
      </trkpt>
      <trkpt lat="48.39625" lon="2.54038">
        <ele>108</ele>
        <time>2016-02-22T00:01:28Z</time>
      </trkpt>
      <trkpt lat="48.39619" lon="2.54029">
        <ele>109</ele>
        <time>2016-02-22T00:03:28Z</time>
      </trkpt>
      <trkpt lat="48.39617" lon="2.54022">
        <ele>110</ele>
        <time>2016-02-22T00:05:28Z</time>
      </trkpt>
      <trkpt lat="48.39614" lon="2.5401">
        <ele>111</ele>
        <time>2016-02-22T00:07:28Z</time>
      </trkpt>
      <trkpt lat="48.39612" lon="2.53995">
        <ele>112</ele>
        <time>2016-02-22T00:09:28Z</time>
      </trkpt>
      <trkpt lat="48.39613" lon="2.53975">
        <ele>112</ele>
        <time>2016-02-22T00:11:28Z</time>
      </trkpt>
      <trkpt lat="48.39614" lon="2.53958">
        <ele>112</ele>
        <time>2016-02-22T00:13:28Z</time>
      </trkpt>
      <trkpt lat="48.39614" lon="2.53946">
        <ele>112</ele>
        <time>2016-02-22T00:15:28Z</time>
      </trkpt>
      <trkpt lat="48.39616" lon="2.53935">
        <ele>111</ele>
        <time>2016-02-22T00:17:28Z</time>
      </trkpt>
      <trkpt lat="48.39619" lon="2.53925">
        <ele>111</ele>
        <time>2016-02-22T00:19:28Z</time>
      </trkpt>
      <trkpt lat="48.39626" lon="2.53919">
        <ele>109</ele>
        <time>2016-02-22T00:21:28Z</time>
      </trkpt>
      <trkpt lat="48.39633" lon="2.53913">
        <ele>108</ele>
        <time>2016-02-22T00:23:28Z</time>
      </trkpt>
      <trkpt lat="48.39634" lon="2.53892">
        <ele>109</ele>
        <time>2016-02-22T00:25:28Z</time>
      </trkpt>
      <trkpt lat="48.39634" lon="2.53873">
        <ele>111</ele>
        <time>2016-02-22T00:27:28Z</time>
      </trkpt>
      <trkpt lat="48.39628" lon="2.5386">
        <ele>112</ele>
        <time>2016-02-22T00:29:28Z</time>
      </trkpt>
      <trkpt lat="48.39637" lon="2.53839">
        <ele>113</ele>
        <time>2016-02-22T00:31:28Z</time>
      </trkpt>
      <trkpt lat="48.39634" lon="2.53829">
        <ele>114</ele>
        <time>2016-02-22T00:33:28Z</time>
      </trkpt>
      <trkpt lat="48.39623" lon="2.53791">
        <ele>116</ele>
        <time>2016-02-22T00:35:28Z</time>
      </trkpt>
      <trkpt lat="48.39663" lon="2.53759">
        <ele>115</ele>
        <time>2016-02-22T00:37:28Z</time>
      </trkpt>
      <trkpt lat="48.39675" lon="2.53731">
        <ele>114</ele>
        <time>2016-02-22T00:39:28Z</time>
      </trkpt>
      <trkpt lat="48.39673" lon="2.5372">
        <ele>114</ele>
        <time>2016-02-22T00:41:28Z</time>
      </trkpt>
      <trkpt lat="48.39674" lon="2.53702">
        <ele>115</ele>
        <time>2016-02-22T00:43:28Z</time>
      </trkpt>
      <trkpt lat="48.39674" lon="2.53685">
        <ele>116</ele>
        <time>2016-02-22T00:45:28Z</time>
      </trkpt>
      <trkpt lat="48.39674" lon="2.53667">
        <ele>116</ele>
        <time>2016-02-22T00:47:28Z</time>
      </trkpt>
      <trkpt lat="48.3967" lon="2.53651">
        <ele>117</ele>
        <time>2016-02-22T00:49:28Z</time>
      </trkpt>
      <trkpt lat="48.39667" lon="2.53633">
        <ele>118</ele>
        <time>2016-02-22T00:51:28Z</time>
      </trkpt>
      <trkpt lat="48.39669" lon="2.53616">
        <ele>118</ele>
        <time>2016-02-22T00:53:28Z</time>
      </trkpt>
      <trkpt lat="48.39675" lon="2.53597">
        <ele>117</ele>
        <time>2016-02-22T00:55:28Z</time>
      </trkpt>
      <trkpt lat="48.39682" lon="2.53577">
        <ele>116</ele>
        <time>2016-02-22T00:57:28Z</time>
      </trkpt>
      <trkpt lat="48.39687" lon="2.53567">
        <ele>116</ele>
        <time>2016-02-22T00:59:28Z</time>
      </trkpt>
      <trkpt lat="48.39687" lon="2.53556">
        <ele>116</ele>
        <time>2016-02-22T01:01:28Z</time>
      </trkpt>
      <trkpt lat="48.39684" lon="2.53535">
        <ele>117</ele>
        <time>2016-02-22T01:03:28Z</time>
      </trkpt>
      <trkpt lat="48.39683" lon="2.53513">
        <ele>117</ele>
        <time>2016-02-22T01:05:28Z</time>
      </trkpt>
      <trkpt lat="48.39689" lon="2.53484">
        <ele>117</ele>
        <time>2016-02-22T01:07:28Z</time>
      </trkpt>
      <trkpt lat="48.397" lon="2.53445">
        <ele>117</ele>
        <time>2016-02-22T01:09:28Z</time>
      </trkpt>
      <trkpt lat="48.39718" lon="2.53399">
        <ele>116</ele>
        <time>2016-02-22T01:11:28Z</time>
      </trkpt>
      <trkpt lat="48.39728" lon="2.53371">
        <ele>116</ele>
        <time>2016-02-22T01:13:28Z</time>
      </trkpt>
      <trkpt lat="48.39733" lon="2.5335">
        <ele>117</ele>
        <time>2016-02-22T01:15:28Z</time>
      </trkpt>
      <trkpt lat="48.39739" lon="2.53337">
        <ele>117</ele>
        <time>2016-02-22T01:17:28Z</time>
      </trkpt>
      <trkpt lat="48.39742" lon="2.5332">
        <ele>118</ele>
        <time>2016-02-22T01:19:28Z</time>
      </trkpt>
      <trkpt lat="48.39746" lon="2.53307">
        <ele>118</ele>
        <time>2016-02-22T01:21:28Z</time>
      </trkpt>
      <trkpt lat="48.39748" lon="2.53295">
        <ele>118</ele>
        <time>2016-02-22T01:23:28Z</time>
      </trkpt>
      <trkpt lat="48.3975" lon="2.5328">
        <ele>118</ele>
        <time>2016-02-22T01:25:28Z</time>
      </trkpt>
      <trkpt lat="48.39749" lon="2.53265">
        <ele>119</ele>
        <time>2016-02-22T01:27:28Z</time>
      </trkpt>
      <trkpt lat="48.39745" lon="2.53244">
        <ele>119</ele>
        <time>2016-02-22T01:29:28Z</time>
      </trkpt>
      <trkpt lat="48.39742" lon="2.53228">
        <ele>120</ele>
        <time>2016-02-22T01:31:28Z</time>
      </trkpt>
      <trkpt lat="48.39744" lon="2.53216">
        <ele>120</ele>
        <time>2016-02-22T01:33:28Z</time>
      </trkpt>
      <trkpt lat="48.39746" lon="2.53201">
        <ele>121</ele>
        <time>2016-02-22T01:35:28Z</time>
      </trkpt>
      <trkpt lat="48.39739" lon="2.53185">
        <ele>121</ele>
        <time>2016-02-22T01:37:28Z</time>
      </trkpt>
      <trkpt lat="48.39732" lon="2.53178">
        <ele>121</ele>
        <time>2016-02-22T01:39:28Z</time>
      </trkpt>
      <trkpt lat="48.39723" lon="2.53175">
        <ele>121</ele>
        <time>2016-02-22T01:41:28Z</time>
      </trkpt>
      <trkpt lat="48.39721" lon="2.53168">
        <ele>122</ele>
        <time>2016-02-22T01:43:28Z</time>
      </trkpt>
      <trkpt lat="48.39718" lon="2.53157">
        <ele>122</ele>
        <time>2016-02-22T01:45:28Z</time>
      </trkpt>
      <trkpt lat="48.39711" lon="2.53157">
        <ele>122</ele>
        <time>2016-02-22T01:47:28Z</time>
      </trkpt>
      <trkpt lat="48.39705" lon="2.53154">
        <ele>121</ele>
        <time>2016-02-22T01:49:28Z</time>
      </trkpt>
      <trkpt lat="48.39695" lon="2.5315">
        <ele>121</ele>
        <time>2016-02-22T01:51:28Z</time>
      </trkpt>
      <trkpt lat="48.3969" lon="2.53143">
        <ele>121</ele>
        <time>2016-02-22T01:53:28Z</time>
      </trkpt>
      <trkpt lat="48.39692" lon="2.53127">
        <ele>121</ele>
        <time>2016-02-22T01:55:28Z</time>
      </trkpt>
      <trkpt lat="48.39688" lon="2.53116">
        <ele>121</ele>
        <time>2016-02-22T01:57:28Z</time>
      </trkpt>
      <trkpt lat="48.39686" lon="2.53104">
        <ele>121</ele>
        <time>2016-02-22T01:59:28Z</time>
      </trkpt>
      <trkpt lat="48.3968" lon="2.53094">
        <ele>121</ele>
        <time>2016-02-22T02:01:28Z</time>
      </trkpt>
      <trkpt lat="48.39674" lon="2.53086">
        <ele>121</ele>
        <time>2016-02-22T02:03:28Z</time>
      </trkpt>
      <trkpt lat="48.39668" lon="2.5308">
        <ele>121</ele>
        <time>2016-02-22T02:05:28Z</time>
      </trkpt>
      <trkpt lat="48.39666" lon="2.5306">
        <ele>120</ele>
        <time>2016-02-22T02:07:28Z</time>
      </trkpt>
      <trkpt lat="48.39664" lon="2.53043">
        <ele>120</ele>
        <time>2016-02-22T02:09:28Z</time>
      </trkpt>
      <trkpt lat="48.39664" lon="2.5303">
        <ele>119</ele>
        <time>2016-02-22T02:11:28Z</time>
      </trkpt>
      <trkpt lat="48.39667" lon="2.5302">
        <ele>119</ele>
        <time>2016-02-22T02:13:28Z</time>
      </trkpt>
      <trkpt lat="48.39677" lon="2.53001">
        <ele>118</ele>
        <time>2016-02-22T02:15:28Z</time>
      </trkpt>
      <trkpt lat="48.3967" lon="2.52998">
        <ele>118</ele>
        <time>2016-02-22T02:17:28Z</time>
      </trkpt>
      <trkpt lat="48.39674" lon="2.5299">
        <ele>118</ele>
        <time>2016-02-22T02:19:28Z</time>
      </trkpt>
      <trkpt lat="48.39682" lon="2.52987">
        <ele>118</ele>
        <time>2016-02-22T02:21:28Z</time>
      </trkpt>
      <trkpt lat="48.39691" lon="2.52988">
        <ele>119</ele>
        <time>2016-02-22T02:23:28Z</time>
      </trkpt>
      <trkpt lat="48.39699" lon="2.52991">
        <ele>119</ele>
        <time>2016-02-22T02:25:28Z</time>
      </trkpt>
      <trkpt lat="48.39705" lon="2.5298">
        <ele>119</ele>
        <time>2016-02-22T02:27:28Z</time>
      </trkpt>
      <trkpt lat="48.39709" lon="2.52962">
        <ele>119</ele>
        <time>2016-02-22T02:29:28Z</time>
      </trkpt>
      <trkpt lat="48.39715" lon="2.52953">
        <ele>120</ele>
        <time>2016-02-22T02:31:28Z</time>
      </trkpt>
      <trkpt lat="48.39725" lon="2.52963">
        <ele>120</ele>
        <time>2016-02-22T02:33:28Z</time>
      </trkpt>
      <trkpt lat="48.39736" lon="2.52959">
        <ele>120</ele>
        <time>2016-02-22T02:35:28Z</time>
      </trkpt>
      <trkpt lat="48.39748" lon="2.52952">
        <ele>121</ele>
        <time>2016-02-22T02:37:28Z</time>
      </trkpt>
      <trkpt lat="48.39753" lon="2.52938">
        <ele>121</ele>
        <time>2016-02-22T02:39:28Z</time>
      </trkpt>
      <trkpt lat="48.39758" lon="2.52928">
        <ele>120</ele>
        <time>2016-02-22T02:41:28Z</time>
      </trkpt>
      <trkpt lat="48.39757" lon="2.52915">
        <ele>121</ele>
        <time>2016-02-22T02:43:28Z</time>
      </trkpt>
      <trkpt lat="48.39766" lon="2.52904">
        <ele>120</ele>
        <time>2016-02-22T02:45:28Z</time>
      </trkpt>
      <trkpt lat="48.39772" lon="2.52891">
        <ele>119</ele>
        <time>2016-02-22T02:47:28Z</time>
      </trkpt>
      <trkpt lat="48.39777" lon="2.52873">
        <ele>119</ele>
        <time>2016-02-22T02:49:28Z</time>
      </trkpt>
      <trkpt lat="48.39783" lon="2.52848">
        <ele>119</ele>
        <time>2016-02-22T02:51:28Z</time>
      </trkpt>
      <trkpt lat="48.39793" lon="2.52851">
        <ele>118</ele>
        <time>2016-02-22T02:53:28Z</time>
      </trkpt>
      <trkpt lat="48.39801" lon="2.52848">
        <ele>117</ele>
        <time>2016-02-22T02:55:28Z</time>
      </trkpt>
      <trkpt lat="48.39811" lon="2.52853">
        <ele>115</ele>
        <time>2016-02-22T02:57:28Z</time>
      </trkpt>
      <trkpt lat="48.39836" lon="2.52861">
        <ele>111</ele>
        <time>2016-02-22T02:59:28Z</time>
      </trkpt>
      <trkpt lat="48.3984" lon="2.52854">
        <ele>110</ele>
        <time>2016-02-22T03:01:28Z</time>
      </trkpt>
      <trkpt lat="48.39845" lon="2.52845">
        <ele>109</ele>
        <time>2016-02-22T03:03:28Z</time>
      </trkpt>
      <trkpt lat="48.39845" lon="2.52831">
        <ele>110</ele>
        <time>2016-02-22T03:05:28Z</time>
      </trkpt>
      <trkpt lat="48.39845" lon="2.52821">
        <ele>110</ele>
        <time>2016-02-22T03:07:28Z</time>
      </trkpt>
      <trkpt lat="48.39842" lon="2.52806">
        <ele>110</ele>
        <time>2016-02-22T03:09:28Z</time>
      </trkpt>
      <trkpt lat="48.39839" lon="2.52793">
        <ele>111</ele>
        <time>2016-02-22T03:11:28Z</time>
      </trkpt>
      <trkpt lat="48.39832" lon="2.52779">
        <ele>112</ele>
        <time>2016-02-22T03:13:28Z</time>
      </trkpt>
      <trkpt lat="48.3982" lon="2.5276">
        <ele>113</ele>
        <time>2016-02-22T03:15:28Z</time>
      </trkpt>
      <trkpt lat="48.39812" lon="2.52749">
        <ele>114</ele>
        <time>2016-02-22T03:17:28Z</time>
      </trkpt>
      <trkpt lat="48.39809" lon="2.52739">
        <ele>114</ele>
        <time>2016-02-22T03:19:28Z</time>
      </trkpt>
      <trkpt lat="48.39805" lon="2.52722">
        <ele>114</ele>
        <time>2016-02-22T03:21:28Z</time>
      </trkpt>
      <trkpt lat="48.39801" lon="2.5271">
        <ele>115</ele>
        <time>2016-02-22T03:23:28Z</time>
      </trkpt>
      <trkpt lat="48.39801" lon="2.52698">
        <ele>114</ele>
        <time>2016-02-22T03:25:28Z</time>
      </trkpt>
      <trkpt lat="48.39803" lon="2.52673">
        <ele>113</ele>
        <time>2016-02-22T03:27:28Z</time>
      </trkpt>
      <trkpt lat="48.39804" lon="2.52651">
        <ele>113</ele>
        <time>2016-02-22T03:29:28Z</time>
      </trkpt>
      <trkpt lat="48.39806" lon="2.52633">
        <ele>114</ele>
        <time>2016-02-22T03:31:28Z</time>
      </trkpt>
      <trkpt lat="48.39812" lon="2.52608">
        <ele>114</ele>
        <time>2016-02-22T03:33:28Z</time>
      </trkpt>
      <trkpt lat="48.39818" lon="2.52594">
        <ele>114</ele>
        <time>2016-02-22T03:35:28Z</time>
      </trkpt>
      <trkpt lat="48.39827" lon="2.52573">
        <ele>115</ele>
        <time>2016-02-22T03:37:28Z</time>
      </trkpt>
      <trkpt lat="48.39829" lon="2.5254">
        <ele>116</ele>
        <time>2016-02-22T03:39:28Z</time>
      </trkpt>
      <trkpt lat="48.39834" lon="2.52487">
        <ele>118</ele>
        <time>2016-02-22T03:41:28Z</time>
      </trkpt>
      <trkpt lat="48.39838" lon="2.52446">
        <ele>119</ele>
        <time>2016-02-22T03:43:28Z</time>
      </trkpt>
      <trkpt lat="48.39852" lon="2.52421">
        <ele>118</ele>
        <time>2016-02-22T03:45:28Z</time>
      </trkpt>
      <trkpt lat="48.39866" lon="2.52392">
        <ele>117</ele>
        <time>2016-02-22T03:47:28Z</time>
      </trkpt>
      <trkpt lat="48.39875" lon="2.52372">
        <ele>117</ele>
        <time>2016-02-22T03:49:28Z</time>
      </trkpt>
      <trkpt lat="48.39886" lon="2.5236">
        <ele>117</ele>
        <time>2016-02-22T03:51:28Z</time>
      </trkpt>
      <trkpt lat="48.39897" lon="2.52346">
        <ele>117</ele>
        <time>2016-02-22T03:53:28Z</time>
      </trkpt>
      <trkpt lat="48.39914" lon="2.52326">
        <ele>118</ele>
        <time>2016-02-22T03:55:28Z</time>
      </trkpt>
      <trkpt lat="48.39926" lon="2.52332">
        <ele>116</ele>
        <time>2016-02-22T03:57:28Z</time>
      </trkpt>
      <trkpt lat="48.39941" lon="2.52333">
        <ele>112</ele>
        <time>2016-02-22T03:59:28Z</time>
      </trkpt>
      <trkpt lat="48.39949" lon="2.52329">
        <ele>111</ele>
        <time>2016-02-22T04:01:28Z</time>
      </trkpt>
      <trkpt lat="48.39959" lon="2.52324">
        <ele>109</ele>
        <time>2016-02-22T04:03:28Z</time>
      </trkpt>
      <trkpt lat="48.39966" lon="2.52319">
        <ele>108</ele>
        <time>2016-02-22T04:05:28Z</time>
      </trkpt>
      <trkpt lat="48.39967" lon="2.5231">
        <ele>108</ele>
        <time>2016-02-22T04:07:28Z</time>
      </trkpt>
      <trkpt lat="48.39967" lon="2.52299">
        <ele>110</ele>
        <time>2016-02-22T04:09:28Z</time>
      </trkpt>
      <trkpt lat="48.39977" lon="2.52288">
        <ele>109</ele>
        <time>2016-02-22T04:11:28Z</time>
      </trkpt>
      <trkpt lat="48.39978" lon="2.52278">
        <ele>110</ele>
        <time>2016-02-22T04:13:28Z</time>
      </trkpt>
      <trkpt lat="48.39981" lon="2.52268">
        <ele>111</ele>
        <time>2016-02-22T04:15:28Z</time>
      </trkpt>
      <trkpt lat="48.39985" lon="2.52257">
        <ele>112</ele>
        <time>2016-02-22T04:17:28Z</time>
      </trkpt>
      <trkpt lat="48.39985" lon="2.52245">
        <ele>112</ele>
        <time>2016-02-22T04:19:28Z</time>
      </trkpt>
      <trkpt lat="48.39981" lon="2.52228">
        <ele>111</ele>
        <time>2016-02-22T04:21:28Z</time>
      </trkpt>
      <trkpt lat="48.39973" lon="2.52226">
        <ele>111</ele>
        <time>2016-02-22T04:23:28Z</time>
      </trkpt>
      <trkpt lat="48.39964" lon="2.52227">
        <ele>112</ele>
        <time>2016-02-22T04:25:28Z</time>
      </trkpt>
      <trkpt lat="48.39948" lon="2.5224">
        <ele>116</ele>
        <time>2016-02-22T04:27:28Z</time>
      </trkpt>
      <trkpt lat="48.39934" lon="2.52256">
        <ele>119</ele>
        <time>2016-02-22T04:29:28Z</time>
      </trkpt>
      <trkpt lat="48.39928" lon="2.52265">
        <ele>119</ele>
        <time>2016-02-22T04:31:28Z</time>
      </trkpt>
      <trkpt lat="48.39919" lon="2.52272">
        <ele>120</ele>
        <time>2016-02-22T04:33:28Z</time>
      </trkpt>
      <trkpt lat="48.39904" lon="2.52273">
        <ele>120</ele>
        <time>2016-02-22T04:35:28Z</time>
      </trkpt>
      <trkpt lat="48.39893" lon="2.52268">
        <ele>120</ele>
        <time>2016-02-22T04:37:28Z</time>
      </trkpt>
      <trkpt lat="48.39886" lon="2.5226">
        <ele>120</ele>
        <time>2016-02-22T04:39:28Z</time>
      </trkpt>
      <trkpt lat="48.3988" lon="2.52253">
        <ele>121</ele>
        <time>2016-02-22T04:41:28Z</time>
      </trkpt>
      <trkpt lat="48.39876" lon="2.52241">
        <ele>119</ele>
        <time>2016-02-22T04:43:28Z</time>
      </trkpt>
      <trkpt lat="48.39868" lon="2.52248">
        <ele>120</ele>
        <time>2016-02-22T04:45:28Z</time>
      </trkpt>
      <trkpt lat="48.39862" lon="2.52257">
        <ele>120</ele>
        <time>2016-02-22T04:47:28Z</time>
      </trkpt>
      <trkpt lat="48.39853" lon="2.52262">
        <ele>120</ele>
        <time>2016-02-22T04:49:28Z</time>
      </trkpt>
      <trkpt lat="48.39848" lon="2.52258">
        <ele>120</ele>
        <time>2016-02-22T04:51:28Z</time>
      </trkpt>
      <trkpt lat="48.39846" lon="2.52252">
        <ele>120</ele>
        <time>2016-02-22T04:53:28Z</time>
      </trkpt>
      <trkpt lat="48.39857" lon="2.52246">
        <ele>120</ele>
        <time>2016-02-22T04:55:28Z</time>
      </trkpt>
      <trkpt lat="48.39858" lon="2.52232">
        <ele>118</ele>
        <time>2016-02-22T04:57:28Z</time>
      </trkpt>
      <trkpt lat="48.39861" lon="2.52219">
        <ele>117</ele>
        <time>2016-02-22T04:59:28Z</time>
      </trkpt>
      <trkpt lat="48.39866" lon="2.52211">
        <ele>116</ele>
        <time>2016-02-22T05:01:28Z</time>
      </trkpt>
      <trkpt lat="48.39874" lon="2.52201">
        <ele>114</ele>
        <time>2016-02-22T05:03:28Z</time>
      </trkpt>
      <trkpt lat="48.39877" lon="2.52178">
        <ele>111</ele>
        <time>2016-02-22T05:05:28Z</time>
      </trkpt>
      <trkpt lat="48.39881" lon="2.52167">
        <ele>109</ele>
        <time>2016-02-22T05:07:28Z</time>
      </trkpt>
      <trkpt lat="48.39893" lon="2.5215">
        <ele>106</ele>
        <time>2016-02-22T05:09:28Z</time>
      </trkpt>
      <trkpt lat="48.39895" lon="2.52117">
        <ele>102</ele>
        <time>2016-02-22T05:11:28Z</time>
      </trkpt>
      <trkpt lat="48.39903" lon="2.52107">
        <ele>100</ele>
        <time>2016-02-22T05:13:28Z</time>
      </trkpt>
      <trkpt lat="48.39908" lon="2.52096">
        <ele>98</ele>
        <time>2016-02-22T05:15:28Z</time>
      </trkpt>
      <trkpt lat="48.39908" lon="2.52078">
        <ele>96</ele>
        <time>2016-02-22T05:17:28Z</time>
      </trkpt>
      <trkpt lat="48.39905" lon="2.52063">
        <ele>96</ele>
        <time>2016-02-22T05:19:28Z</time>
      </trkpt>
      <trkpt lat="48.39893" lon="2.52059">
        <ele>96</ele>
        <time>2016-02-22T05:21:28Z</time>
      </trkpt>
      <trkpt lat="48.39897" lon="2.5205">
        <ele>95</ele>
        <time>2016-02-22T05:23:28Z</time>
      </trkpt>
      <trkpt lat="48.399" lon="2.52025">
        <ele>93</ele>
        <time>2016-02-22T05:25:28Z</time>
      </trkpt>
      <trkpt lat="48.39902" lon="2.52007">
        <ele>92</ele>
        <time>2016-02-22T05:27:28Z</time>
      </trkpt>
      <trkpt lat="48.39906" lon="2.51999">
        <ele>92</ele>
        <time>2016-02-22T05:29:28Z</time>
      </trkpt>
      <trkpt lat="48.39909" lon="2.51988">
        <ele>91</ele>
        <time>2016-02-22T05:31:28Z</time>
      </trkpt>
      <trkpt lat="48.39908" lon="2.51977">
        <ele>90</ele>
        <time>2016-02-22T05:33:28Z</time>
      </trkpt>
      <trkpt lat="48.39899" lon="2.5197">
        <ele>89</ele>
        <time>2016-02-22T05:35:28Z</time>
      </trkpt>
      <trkpt lat="48.3989" lon="2.51963">
        <ele>89</ele>
        <time>2016-02-22T05:37:28Z</time>
      </trkpt>
      <trkpt lat="48.39884" lon="2.51956">
        <ele>89</ele>
        <time>2016-02-22T05:39:28Z</time>
      </trkpt>
      <trkpt lat="48.39875" lon="2.51934">
        <ele>87</ele>
        <time>2016-02-22T05:41:28Z</time>
      </trkpt>
      <trkpt lat="48.39875" lon="2.51912">
        <ele>86</ele>
        <time>2016-02-22T05:43:28Z</time>
      </trkpt>
      <trkpt lat="48.39876" lon="2.51891">
        <ele>85</ele>
        <time>2016-02-22T05:45:28Z</time>
      </trkpt>
      <trkpt lat="48.39871" lon="2.5187">
        <ele>85</ele>
        <time>2016-02-22T05:47:28Z</time>
      </trkpt>
      <trkpt lat="48.39865" lon="2.5185">
        <ele>85</ele>
        <time>2016-02-22T05:49:28Z</time>
      </trkpt>
      <trkpt lat="48.39859" lon="2.51834">
        <ele>86</ele>
        <time>2016-02-22T05:51:28Z</time>
      </trkpt>
      <trkpt lat="48.39852" lon="2.51815">
        <ele>86</ele>
        <time>2016-02-22T05:53:28Z</time>
      </trkpt>
      <trkpt lat="48.39839" lon="2.51796">
        <ele>87</ele>
        <time>2016-02-22T05:55:28Z</time>
      </trkpt>
      <trkpt lat="48.39829" lon="2.51777">
        <ele>88</ele>
        <time>2016-02-22T05:57:28Z</time>
      </trkpt>
      <trkpt lat="48.39824" lon="2.51768">
        <ele>88</ele>
        <time>2016-02-22T05:59:28Z</time>
      </trkpt>
      <trkpt lat="48.39807" lon="2.51772">
        <ele>91</ele>
        <time>2016-02-22T06:01:28Z</time>
      </trkpt>
      <trkpt lat="48.39802" lon="2.51792">
        <ele>92</ele>
        <time>2016-02-22T06:03:28Z</time>
      </trkpt>
      <trkpt lat="48.39794" lon="2.51809">
        <ele>94</ele>
        <time>2016-02-22T06:05:28Z</time>
      </trkpt>
      <trkpt lat="48.39788" lon="2.51822">
        <ele>96</ele>
        <time>2016-02-22T06:07:28Z</time>
      </trkpt>
      <trkpt lat="48.39779" lon="2.51825">
        <ele>98</ele>
        <time>2016-02-22T06:09:28Z</time>
      </trkpt>
      <trkpt lat="48.39768" lon="2.51826">
        <ele>100</ele>
        <time>2016-02-22T06:11:28Z</time>
      </trkpt>
      <trkpt lat="48.39759" lon="2.51828">
        <ele>102</ele>
        <time>2016-02-22T06:13:28Z</time>
      </trkpt>
      <trkpt lat="48.39746" lon="2.51819">
        <ele>104</ele>
        <time>2016-02-22T06:15:28Z</time>
      </trkpt>
      <trkpt lat="48.39733" lon="2.51803">
        <ele>105</ele>
        <time>2016-02-22T06:17:28Z</time>
      </trkpt>
      <trkpt lat="48.39725" lon="2.51789">
        <ele>106</ele>
        <time>2016-02-22T06:19:28Z</time>
      </trkpt>
      <trkpt lat="48.39715" lon="2.51774">
        <ele>107</ele>
        <time>2016-02-22T06:21:28Z</time>
      </trkpt>
      <trkpt lat="48.39707" lon="2.51763">
        <ele>108</ele>
        <time>2016-02-22T06:23:28Z</time>
      </trkpt>
      <trkpt lat="48.39701" lon="2.51744">
        <ele>107</ele>
        <time>2016-02-22T06:25:28Z</time>
      </trkpt>
      <trkpt lat="48.39694" lon="2.51736">
        <ele>108</ele>
        <time>2016-02-22T06:27:28Z</time>
      </trkpt>
      <trkpt lat="48.39687" lon="2.51723">
        <ele>108</ele>
        <time>2016-02-22T06:29:28Z</time>
      </trkpt>
      <trkpt lat="48.39679" lon="2.51704">
        <ele>107</ele>
        <time>2016-02-22T06:31:28Z</time>
      </trkpt>
      <trkpt lat="48.39666" lon="2.51689">
        <ele>108</ele>
        <time>2016-02-22T06:33:28Z</time>
      </trkpt>
      <trkpt lat="48.39655" lon="2.51681">
        <ele>106</ele>
        <time>2016-02-22T06:35:28Z</time>
      </trkpt>
      <trkpt lat="48.39643" lon="2.51678">
        <ele>105</ele>
        <time>2016-02-22T06:37:28Z</time>
      </trkpt>
      <trkpt lat="48.39628" lon="2.51682">
        <ele>104</ele>
        <time>2016-02-22T06:39:28Z</time>
      </trkpt>
      <trkpt lat="48.39619" lon="2.51684">
        <ele>104</ele>
        <time>2016-02-22T06:41:28Z</time>
      </trkpt>
      <trkpt lat="48.39611" lon="2.51692">
        <ele>104</ele>
        <time>2016-02-22T06:43:28Z</time>
      </trkpt>
      <trkpt lat="48.39606" lon="2.5171">
        <ele>105</ele>
        <time>2016-02-22T06:45:28Z</time>
      </trkpt>
      <trkpt lat="48.39605" lon="2.51735">
        <ele>107</ele>
        <time>2016-02-22T06:47:28Z</time>
      </trkpt>
      <trkpt lat="48.39604" lon="2.51776">
        <ele>111</ele>
        <time>2016-02-22T06:49:28Z</time>
      </trkpt>
      <trkpt lat="48.39605" lon="2.51789">
        <ele>112</ele>
        <time>2016-02-22T06:51:28Z</time>
      </trkpt>
      <trkpt lat="48.39598" lon="2.51794">
        <ele>112</ele>
        <time>2016-02-22T06:53:28Z</time>
      </trkpt>
      <trkpt lat="48.39593" lon="2.51798">
        <ele>112</ele>
        <time>2016-02-22T06:55:28Z</time>
      </trkpt>
      <trkpt lat="48.39578" lon="2.51791">
        <ele>109</ele>
        <time>2016-02-22T06:57:28Z</time>
      </trkpt>
      <trkpt lat="48.39566" lon="2.51788">
        <ele>107</ele>
        <time>2016-02-22T06:59:28Z</time>
      </trkpt>
      <trkpt lat="48.39561" lon="2.51809">
        <ele>109</ele>
        <time>2016-02-22T07:01:28Z</time>
      </trkpt>
      <trkpt lat="48.39557" lon="2.51819">
        <ele>109</ele>
        <time>2016-02-22T07:03:28Z</time>
      </trkpt>
      <trkpt lat="48.39546" lon="2.51833">
        <ele>109</ele>
        <time>2016-02-22T07:05:28Z</time>
      </trkpt>
      <trkpt lat="48.39543" lon="2.51845">
        <ele>109</ele>
        <time>2016-02-22T07:07:28Z</time>
      </trkpt>
      <trkpt lat="48.39537" lon="2.51872">
        <ele>109</ele>
        <time>2016-02-22T07:09:28Z</time>
      </trkpt>
      <trkpt lat="48.39538" lon="2.51887">
        <ele>110</ele>
        <time>2016-02-22T07:11:28Z</time>
      </trkpt>
      <trkpt lat="48.39539" lon="2.51907">
        <ele>112</ele>
        <time>2016-02-22T07:13:28Z</time>
      </trkpt>
      <trkpt lat="48.39539" lon="2.51922">
        <ele>112</ele>
        <time>2016-02-22T07:15:28Z</time>
      </trkpt>
      <trkpt lat="48.39535" lon="2.51931">
        <ele>112</ele>
        <time>2016-02-22T07:17:28Z</time>
      </trkpt>
      <trkpt lat="48.39522" lon="2.51936">
        <ele>111</ele>
        <time>2016-02-22T07:19:28Z</time>
      </trkpt>
      <trkpt lat="48.39512" lon="2.51936">
        <ele>110</ele>
        <time>2016-02-22T07:21:28Z</time>
      </trkpt>
      <trkpt lat="48.39498" lon="2.51955">
        <ele>110</ele>
        <time>2016-02-22T07:23:28Z</time>
      </trkpt>
      <trkpt lat="48.39489" lon="2.51968">
        <ele>111</ele>
        <time>2016-02-22T07:25:28Z</time>
      </trkpt>
      <trkpt lat="48.3948" lon="2.51997">
        <ele>113</ele>
        <time>2016-02-22T07:27:28Z</time>
      </trkpt>
      <trkpt lat="48.39469" lon="2.52018">
        <ele>114</ele>
        <time>2016-02-22T07:29:28Z</time>
      </trkpt>
      <trkpt lat="48.3946" lon="2.52029">
        <ele>114</ele>
        <time>2016-02-22T07:31:28Z</time>
      </trkpt>
      <trkpt lat="48.39455" lon="2.52045">
        <ele>115</ele>
        <time>2016-02-22T07:33:28Z</time>
      </trkpt>
      <trkpt lat="48.39452" lon="2.52079">
        <ele>116</ele>
        <time>2016-02-22T07:35:28Z</time>
      </trkpt>
      <trkpt lat="48.39447" lon="2.52111">
        <ele>116</ele>
        <time>2016-02-22T07:37:28Z</time>
      </trkpt>
      <trkpt lat="48.3944" lon="2.52146">
        <ele>115</ele>
        <time>2016-02-22T07:39:28Z</time>
      </trkpt>
      <trkpt lat="48.39433" lon="2.52166">
        <ele>115</ele>
        <time>2016-02-22T07:41:28Z</time>
      </trkpt>
      <trkpt lat="48.39433" lon="2.52181">
        <ele>115</ele>
        <time>2016-02-22T07:43:28Z</time>
      </trkpt>
      <trkpt lat="48.39428" lon="2.522">
        <ele>115</ele>
        <time>2016-02-22T07:45:28Z</time>
      </trkpt>
      <trkpt lat="48.39417" lon="2.52235">
        <ele>115</ele>
        <time>2016-02-22T07:47:28Z</time>
      </trkpt>
      <trkpt lat="48.39409" lon="2.52232">
        <ele>113</ele>
        <time>2016-02-22T07:49:28Z</time>
      </trkpt>
      <trkpt lat="48.39397" lon="2.52228">
        <ele>112</ele>
        <time>2016-02-22T07:51:28Z</time>
      </trkpt>
      <trkpt lat="48.39388" lon="2.52229">
        <ele>110</ele>
        <time>2016-02-22T07:53:28Z</time>
      </trkpt>
      <trkpt lat="48.3938" lon="2.52234">
        <ele>109</ele>
        <time>2016-02-22T07:55:28Z</time>
      </trkpt>
      <trkpt lat="48.39375" lon="2.52256">
        <ele>108</ele>
        <time>2016-02-22T07:57:28Z</time>
      </trkpt>
      <trkpt lat="48.39372" lon="2.5227">
        <ele>108</ele>
        <time>2016-02-22T07:59:28Z</time>
      </trkpt>
      <trkpt lat="48.39369" lon="2.52286">
        <ele>108</ele>
        <time>2016-02-22T08:01:28Z</time>
      </trkpt>
      <trkpt lat="48.39366" lon="2.52301">
        <ele>107</ele>
        <time>2016-02-22T08:03:28Z</time>
      </trkpt>
      <trkpt lat="48.39363" lon="2.52315">
        <ele>107</ele>
        <time>2016-02-22T08:05:28Z</time>
      </trkpt>
      <trkpt lat="48.39363" lon="2.52333">
        <ele>107</ele>
        <time>2016-02-22T08:07:28Z</time>
      </trkpt>
      <trkpt lat="48.39366" lon="2.52343">
        <ele>107</ele>
        <time>2016-02-22T08:09:28Z</time>
      </trkpt>
      <trkpt lat="48.39365" lon="2.52357">
        <ele>107</ele>
        <time>2016-02-22T08:11:28Z</time>
      </trkpt>
      <trkpt lat="48.39365" lon="2.52371">
        <ele>107</ele>
        <time>2016-02-22T08:13:28Z</time>
      </trkpt>
      <trkpt lat="48.39362" lon="2.52381">
        <ele>106</ele>
        <time>2016-02-22T08:15:28Z</time>
      </trkpt>
      <trkpt lat="48.39357" lon="2.52392">
        <ele>105</ele>
        <time>2016-02-22T08:17:28Z</time>
      </trkpt>
      <trkpt lat="48.39357" lon="2.52401">
        <ele>105</ele>
        <time>2016-02-22T08:19:28Z</time>
      </trkpt>
      <trkpt lat="48.39359" lon="2.52422">
        <ele>106</ele>
        <time>2016-02-22T08:21:28Z</time>
      </trkpt>
      <trkpt lat="48.3936" lon="2.52433">
        <ele>106</ele>
        <time>2016-02-22T08:23:28Z</time>
      </trkpt>
      <trkpt lat="48.39371" lon="2.52446">
        <ele>108</ele>
        <time>2016-02-22T08:25:28Z</time>
      </trkpt>
      <trkpt lat="48.39377" lon="2.52455">
        <ele>109</ele>
        <time>2016-02-22T08:27:28Z</time>
      </trkpt>
      <trkpt lat="48.39388" lon="2.52471">
        <ele>111</ele>
        <time>2016-02-22T08:29:28Z</time>
      </trkpt>
      <trkpt lat="48.394" lon="2.52483">
        <ele>114</ele>
        <time>2016-02-22T08:31:28Z</time>
      </trkpt>
      <trkpt lat="48.39398" lon="2.52507">
        <ele>114</ele>
        <time>2016-02-22T08:33:28Z</time>
      </trkpt>
      <trkpt lat="48.394" lon="2.52555">
        <ele>115</ele>
        <time>2016-02-22T08:35:28Z</time>
      </trkpt>
      <trkpt lat="48.39399" lon="2.52587">
        <ele>115</ele>
        <time>2016-02-22T08:37:28Z</time>
      </trkpt>
      <trkpt lat="48.39398" lon="2.52608">
        <ele>116</ele>
        <time>2016-02-22T08:39:28Z</time>
      </trkpt>
      <trkpt lat="48.39396" lon="2.5263">
        <ele>117</ele>
        <time>2016-02-22T08:41:28Z</time>
      </trkpt>
      <trkpt lat="48.39391" lon="2.52653">
        <ele>117</ele>
        <time>2016-02-22T08:43:28Z</time>
      </trkpt>
      <trkpt lat="48.39386" lon="2.52667">
        <ele>117</ele>
        <time>2016-02-22T08:45:28Z</time>
      </trkpt>
      <trkpt lat="48.39382" lon="2.52683">
        <ele>118</ele>
        <time>2016-02-22T08:47:28Z</time>
      </trkpt>
      <trkpt lat="48.39378" lon="2.52713">
        <ele>118</ele>
        <time>2016-02-22T08:49:28Z</time>
      </trkpt>
      <trkpt lat="48.39372" lon="2.52738">
        <ele>119</ele>
        <time>2016-02-22T08:51:28Z</time>
      </trkpt>
      <trkpt lat="48.39369" lon="2.52746">
        <ele>119</ele>
        <time>2016-02-22T08:53:28Z</time>
      </trkpt>
      <trkpt lat="48.39362" lon="2.52765">
        <ele>119</ele>
        <time>2016-02-22T08:55:28Z</time>
      </trkpt>
      <trkpt lat="48.39357" lon="2.52779">
        <ele>120</ele>
        <time>2016-02-22T08:57:28Z</time>
      </trkpt>
      <trkpt lat="48.39347" lon="2.52776">
        <ele>119</ele>
        <time>2016-02-22T08:59:28Z</time>
      </trkpt>
      <trkpt lat="48.39334" lon="2.52777">
        <ele>118</ele>
        <time>2016-02-22T09:01:28Z</time>
      </trkpt>
      <trkpt lat="48.3932" lon="2.52785">
        <ele>118</ele>
        <time>2016-02-22T09:03:28Z</time>
      </trkpt>
      <trkpt lat="48.39307" lon="2.52796">
        <ele>118</ele>
        <time>2016-02-22T09:05:28Z</time>
      </trkpt>
      <trkpt lat="48.39297" lon="2.52804">
        <ele>119</ele>
        <time>2016-02-22T09:07:28Z</time>
      </trkpt>
      <trkpt lat="48.39284" lon="2.52802">
        <ele>118</ele>
        <time>2016-02-22T09:09:28Z</time>
      </trkpt>
      <trkpt lat="48.39261" lon="2.52799">
        <ele>118</ele>
        <time>2016-02-22T09:11:28Z</time>
      </trkpt>
      <trkpt lat="48.39248" lon="2.52792">
        <ele>117</ele>
        <time>2016-02-22T09:13:28Z</time>
      </trkpt>
      <trkpt lat="48.39241" lon="2.5278">
        <ele>117</ele>
        <time>2016-02-22T09:15:28Z</time>
      </trkpt>
      <trkpt lat="48.39237" lon="2.52766">
        <ele>116</ele>
        <time>2016-02-22T09:17:28Z</time>
      </trkpt>
      <trkpt lat="48.39228" lon="2.52759">
        <ele>116</ele>
        <time>2016-02-22T09:19:28Z</time>
      </trkpt>
      <trkpt lat="48.39219" lon="2.52752">
        <ele>115</ele>
        <time>2016-02-22T09:21:28Z</time>
      </trkpt>
      <trkpt lat="48.39209" lon="2.5275">
        <ele>114</ele>
        <time>2016-02-22T09:23:28Z</time>
      </trkpt>
      <trkpt lat="48.39194" lon="2.52746">
        <ele>113</ele>
        <time>2016-02-22T09:25:28Z</time>
      </trkpt>
      <trkpt lat="48.39186" lon="2.52741">
        <ele>112</ele>
        <time>2016-02-22T09:27:28Z</time>
      </trkpt>
      <trkpt lat="48.39177" lon="2.52734">
        <ele>111</ele>
        <time>2016-02-22T09:29:28Z</time>
      </trkpt>
      <trkpt lat="48.39167" lon="2.52727">
        <ele>110</ele>
        <time>2016-02-22T09:31:28Z</time>
      </trkpt>
      <trkpt lat="48.39155" lon="2.52727">
        <ele>112</ele>
        <time>2016-02-22T09:33:28Z</time>
      </trkpt>
      <trkpt lat="48.39144" lon="2.52737">
        <ele>113</ele>
        <time>2016-02-22T09:35:28Z</time>
      </trkpt>
      <trkpt lat="48.39134" lon="2.52757">
        <ele>114</ele>
        <time>2016-02-22T09:37:28Z</time>
      </trkpt>
      <trkpt lat="48.3913" lon="2.52765">
        <ele>115</ele>
        <time>2016-02-22T09:39:28Z</time>
      </trkpt>
      <trkpt lat="48.39129" lon="2.52778">
        <ele>115</ele>
        <time>2016-02-22T09:41:28Z</time>
      </trkpt>
      <trkpt lat="48.39132" lon="2.52792">
        <ele>114</ele>
        <time>2016-02-22T09:43:28Z</time>
      </trkpt>
      <trkpt lat="48.39128" lon="2.52808">
        <ele>115</ele>
        <time>2016-02-22T09:45:28Z</time>
      </trkpt>
      <trkpt lat="48.39125" lon="2.52824">
        <ele>115</ele>
        <time>2016-02-22T09:47:28Z</time>
      </trkpt>
      <trkpt lat="48.39126" lon="2.52846">
        <ele>114</ele>
        <time>2016-02-22T09:49:28Z</time>
      </trkpt>
      <trkpt lat="48.39124" lon="2.52857">
        <ele>114</ele>
        <time>2016-02-22T09:51:28Z</time>
      </trkpt>
      <trkpt lat="48.3912" lon="2.52871">
        <ele>114</ele>
        <time>2016-02-22T09:53:28Z</time>
      </trkpt>
      <trkpt lat="48.39121" lon="2.52893">
        <ele>114</ele>
        <time>2016-02-22T09:55:28Z</time>
      </trkpt>
      <trkpt lat="48.39115" lon="2.52908">
        <ele>114</ele>
        <time>2016-02-22T09:57:28Z</time>
      </trkpt>
      <trkpt lat="48.39109" lon="2.52924">
        <ele>114</ele>
        <time>2016-02-22T09:59:28Z</time>
      </trkpt>
      <trkpt lat="48.39103" lon="2.52937">
        <ele>114</ele>
        <time>2016-02-22T10:01:28Z</time>
      </trkpt>
      <trkpt lat="48.39093" lon="2.5294">
        <ele>113</ele>
        <time>2016-02-22T10:03:28Z</time>
      </trkpt>
      <trkpt lat="48.39088" lon="2.52957">
        <ele>114</ele>
        <time>2016-02-22T10:05:28Z</time>
      </trkpt>
      <trkpt lat="48.39083" lon="2.5297">
        <ele>114</ele>
        <time>2016-02-22T10:07:28Z</time>
      </trkpt>
      <trkpt lat="48.39076" lon="2.52976">
        <ele>112</ele>
        <time>2016-02-22T10:09:28Z</time>
      </trkpt>
      <trkpt lat="48.39073" lon="2.52991">
        <ele>111</ele>
        <time>2016-02-22T10:11:28Z</time>
      </trkpt>
      <trkpt lat="48.39067" lon="2.53006">
        <ele>110</ele>
        <time>2016-02-22T10:13:28Z</time>
      </trkpt>
      <trkpt lat="48.39065" lon="2.53035">
        <ele>109</ele>
        <time>2016-02-22T10:15:28Z</time>
      </trkpt>
      <trkpt lat="48.39063" lon="2.53063">
        <ele>109</ele>
        <time>2016-02-22T10:17:28Z</time>
      </trkpt>
      <trkpt lat="48.39062" lon="2.53089">
        <ele>109</ele>
        <time>2016-02-22T10:19:28Z</time>
      </trkpt>
      <trkpt lat="48.39061" lon="2.53109">
        <ele>110</ele>
        <time>2016-02-22T10:21:28Z</time>
      </trkpt>
      <trkpt lat="48.39061" lon="2.53132">
        <ele>111</ele>
        <time>2016-02-22T10:23:28Z</time>
      </trkpt>
      <trkpt lat="48.39061" lon="2.53146">
        <ele>112</ele>
        <time>2016-02-22T10:25:28Z</time>
      </trkpt>
      <trkpt lat="48.39064" lon="2.53161">
        <ele>114</ele>
        <time>2016-02-22T10:27:28Z</time>
      </trkpt>
      <trkpt lat="48.39053" lon="2.53163">
        <ele>112</ele>
        <time>2016-02-22T10:29:28Z</time>
      </trkpt>
      <trkpt lat="48.39051" lon="2.53182">
        <ele>112</ele>
        <time>2016-02-22T10:31:28Z</time>
      </trkpt>
      <trkpt lat="48.3905" lon="2.53203">
        <ele>112</ele>
        <time>2016-02-22T10:33:28Z</time>
      </trkpt>
      <trkpt lat="48.39048" lon="2.53232">
        <ele>112</ele>
        <time>2016-02-22T10:35:28Z</time>
      </trkpt>
      <trkpt lat="48.39037" lon="2.53244">
        <ele>111</ele>
        <time>2016-02-22T10:37:28Z</time>
      </trkpt>
      <trkpt lat="48.39039" lon="2.53263">
        <ele>111</ele>
        <time>2016-02-22T10:39:28Z</time>
      </trkpt>
      <trkpt lat="48.3903" lon="2.53275">
        <ele>110</ele>
        <time>2016-02-22T10:41:28Z</time>
      </trkpt>
      <trkpt lat="48.39015" lon="2.53284">
        <ele>109</ele>
        <time>2016-02-22T10:43:28Z</time>
      </trkpt>
      <trkpt lat="48.39009" lon="2.53289">
        <ele>108</ele>
        <time>2016-02-22T10:45:28Z</time>
      </trkpt>
      <trkpt lat="48.39011" lon="2.53312">
        <ele>108</ele>
        <time>2016-02-22T10:47:28Z</time>
      </trkpt>
      <trkpt lat="48.39006" lon="2.533">
        <ele>108</ele>
        <time>2016-02-22T10:49:28Z</time>
      </trkpt>
      <trkpt lat="48.38997" lon="2.53285">
        <ele>106</ele>
        <time>2016-02-22T10:51:28Z</time>
      </trkpt>
      <trkpt lat="48.38986" lon="2.53281">
        <ele>104</ele>
        <time>2016-02-22T10:53:28Z</time>
      </trkpt>
      <trkpt lat="48.38981" lon="2.53275">
        <ele>103</ele>
        <time>2016-02-22T10:55:28Z</time>
      </trkpt>
      <trkpt lat="48.38975" lon="2.53257">
        <ele>103</ele>
        <time>2016-02-22T10:57:28Z</time>
      </trkpt>
      <trkpt lat="48.38973" lon="2.5324">
        <ele>103</ele>
        <time>2016-02-22T10:59:28Z</time>
      </trkpt>
      <trkpt lat="48.38971" lon="2.53226">
        <ele>102</ele>
        <time>2016-02-22T11:01:28Z</time>
      </trkpt>
      <trkpt lat="48.38964" lon="2.53215">
        <ele>101</ele>
        <time>2016-02-22T11:03:28Z</time>
      </trkpt>
      <trkpt lat="48.38953" lon="2.53198">
        <ele>99</ele>
        <time>2016-02-22T11:05:28Z</time>
      </trkpt>
      <trkpt lat="48.38941" lon="2.53185">
        <ele>97</ele>
        <time>2016-02-22T11:07:28Z</time>
      </trkpt>
      <trkpt lat="48.38941" lon="2.5317">
        <ele>97</ele>
        <time>2016-02-22T11:09:28Z</time>
      </trkpt>
      <trkpt lat="48.38944" lon="2.53157">
        <ele>96</ele>
        <time>2016-02-22T11:11:28Z</time>
      </trkpt>
      <trkpt lat="48.38941" lon="2.53141">
        <ele>95</ele>
        <time>2016-02-22T11:13:28Z</time>
      </trkpt>
      <trkpt lat="48.38938" lon="2.53131">
        <ele>94</ele>
        <time>2016-02-22T11:15:28Z</time>
      </trkpt>
      <trkpt lat="48.38938" lon="2.53117">
        <ele>92</ele>
        <time>2016-02-22T11:17:28Z</time>
      </trkpt>
      <trkpt lat="48.38933" lon="2.53104">
        <ele>91</ele>
        <time>2016-02-22T11:19:28Z</time>
      </trkpt>
      <trkpt lat="48.38929" lon="2.53094">
        <ele>90</ele>
        <time>2016-02-22T11:21:28Z</time>
      </trkpt>
      <trkpt lat="48.3893" lon="2.53082">
        <ele>89</ele>
        <time>2016-02-22T11:23:28Z</time>
      </trkpt>
      <trkpt lat="48.38928" lon="2.53072">
        <ele>89</ele>
        <time>2016-02-22T11:25:28Z</time>
      </trkpt>
      <trkpt lat="48.38919" lon="2.53066">
        <ele>89</ele>
        <time>2016-02-22T11:27:28Z</time>
      </trkpt>
      <trkpt lat="48.38912" lon="2.53061">
        <ele>89</ele>
        <time>2016-02-22T11:29:28Z</time>
      </trkpt>
      <trkpt lat="48.38903" lon="2.53051">
        <ele>89</ele>
        <time>2016-02-22T11:31:28Z</time>
      </trkpt>
      <trkpt lat="48.38898" lon="2.5304">
        <ele>90</ele>
        <time>2016-02-22T11:33:28Z</time>
      </trkpt>
      <trkpt lat="48.38895" lon="2.53024">
        <ele>91</ele>
        <time>2016-02-22T11:35:28Z</time>
      </trkpt>
      <trkpt lat="48.38888" lon="2.53014">
        <ele>92</ele>
        <time>2016-02-22T11:37:28Z</time>
      </trkpt>
      <trkpt lat="48.3888" lon="2.53004">
        <ele>93</ele>
        <time>2016-02-22T11:39:28Z</time>
      </trkpt>
      <trkpt lat="48.38874" lon="2.52998">
        <ele>94</ele>
        <time>2016-02-22T11:41:28Z</time>
      </trkpt>
      <trkpt lat="48.38876" lon="2.52989">
        <ele>94</ele>
        <time>2016-02-22T11:43:28Z</time>
      </trkpt>
      <trkpt lat="48.38873" lon="2.52969">
        <ele>96</ele>
        <time>2016-02-22T11:45:28Z</time>
      </trkpt>
      <trkpt lat="48.38872" lon="2.52952">
        <ele>97</ele>
        <time>2016-02-22T11:47:28Z</time>
      </trkpt>
      <trkpt lat="48.38873" lon="2.52942">
        <ele>98</ele>
        <time>2016-02-22T11:49:28Z</time>
      </trkpt>
      <trkpt lat="48.38881" lon="2.52932">
        <ele>98</ele>
        <time>2016-02-22T11:51:28Z</time>
      </trkpt>
      <trkpt lat="48.38889" lon="2.52926">
        <ele>98</ele>
        <time>2016-02-22T11:53:28Z</time>
      </trkpt>
      <trkpt lat="48.38896" lon="2.52915">
        <ele>98</ele>
        <time>2016-02-22T11:55:28Z</time>
      </trkpt>
      <trkpt lat="48.38902" lon="2.52903">
        <ele>100</ele>
        <time>2016-02-22T11:57:28Z</time>
      </trkpt>
      <trkpt lat="48.38919" lon="2.52903">
        <ele>99</ele>
        <time>2016-02-22T11:59:28Z</time>
      </trkpt>
      <trkpt lat="48.3895" lon="2.52902">
        <ele>98</ele>
        <time>2016-02-22T12:01:28Z</time>
      </trkpt>
      <trkpt lat="48.3897" lon="2.52899">
        <ele>98</ele>
        <time>2016-02-22T12:03:28Z</time>
      </trkpt>
      <trkpt lat="48.3898" lon="2.52894">
        <ele>99</ele>
        <time>2016-02-22T12:05:28Z</time>
      </trkpt>
      <trkpt lat="48.3899" lon="2.5289">
        <ele>99</ele>
        <time>2016-02-22T12:07:28Z</time>
      </trkpt>
      <trkpt lat="48.38997" lon="2.52882">
        <ele>100</ele>
        <time>2016-02-22T12:09:28Z</time>
      </trkpt>
      <trkpt lat="48.39005" lon="2.52874">
        <ele>102</ele>
        <time>2016-02-22T12:11:28Z</time>
      </trkpt>
      <trkpt lat="48.39011" lon="2.52862">
        <ele>104</ele>
        <time>2016-02-22T12:13:28Z</time>
      </trkpt>
      <trkpt lat="48.39018" lon="2.52846">
        <ele>107</ele>
        <time>2016-02-22T12:15:28Z</time>
      </trkpt>
      <trkpt lat="48.39031" lon="2.52833">
        <ele>110</ele>
        <time>2016-02-22T12:17:28Z</time>
      </trkpt>
      <trkpt lat="48.39034" lon="2.52819">
        <ele>112</ele>
        <time>2016-02-22T12:19:28Z</time>
      </trkpt>
      <trkpt lat="48.39036" lon="2.528">
        <ele>113</ele>
        <time>2016-02-22T12:21:28Z</time>
      </trkpt>
      <trkpt lat="48.39035" lon="2.52782">
        <ele>115</ele>
        <time>2016-02-22T12:23:28Z</time>
      </trkpt>
      <trkpt lat="48.39032" lon="2.52756">
        <ele>117</ele>
        <time>2016-02-22T12:25:28Z</time>
      </trkpt>
      <trkpt lat="48.39031" lon="2.52723">
        <ele>118</ele>
        <time>2016-02-22T12:27:28Z</time>
      </trkpt>
      <trkpt lat="48.39029" lon="2.52701">
        <ele>118</ele>
        <time>2016-02-22T12:29:28Z</time>
      </trkpt>
      <trkpt lat="48.39034" lon="2.52685">
        <ele>119</ele>
        <time>2016-02-22T12:31:28Z</time>
      </trkpt>
      <trkpt lat="48.39043" lon="2.52674">
        <ele>119</ele>
        <time>2016-02-22T12:33:28Z</time>
      </trkpt>
      <trkpt lat="48.39052" lon="2.52661">
        <ele>119</ele>
        <time>2016-02-22T12:35:28Z</time>
      </trkpt>
      <trkpt lat="48.39054" lon="2.52648">
        <ele>119</ele>
        <time>2016-02-22T12:37:28Z</time>
      </trkpt>
      <trkpt lat="48.39062" lon="2.52627">
        <ele>119</ele>
        <time>2016-02-22T12:39:28Z</time>
      </trkpt>
      <trkpt lat="48.39069" lon="2.5261">
        <ele>120</ele>
        <time>2016-02-22T12:41:28Z</time>
      </trkpt>
      <trkpt lat="48.39076" lon="2.52595">
        <ele>120</ele>
        <time>2016-02-22T12:43:28Z</time>
      </trkpt>
      <trkpt lat="48.39076" lon="2.52577">
        <ele>120</ele>
        <time>2016-02-22T12:45:28Z</time>
      </trkpt>
      <trkpt lat="48.39089" lon="2.52555">
        <ele>120</ele>
        <time>2016-02-22T12:47:28Z</time>
      </trkpt>
      <trkpt lat="48.39107" lon="2.52531">
        <ele>119</ele>
        <time>2016-02-22T12:49:28Z</time>
      </trkpt>
      <trkpt lat="48.3912" lon="2.52512">
        <ele>118</ele>
        <time>2016-02-22T12:51:28Z</time>
      </trkpt>
      <trkpt lat="48.39141" lon="2.52487">
        <ele>118</ele>
        <time>2016-02-22T12:53:28Z</time>
      </trkpt>
      <trkpt lat="48.39146" lon="2.52481">
        <ele>117</ele>
        <time>2016-02-22T12:55:28Z</time>
      </trkpt>
      <trkpt lat="48.39153" lon="2.52478">
        <ele>117</ele>
        <time>2016-02-22T12:57:28Z</time>
      </trkpt>
      <trkpt lat="48.39158" lon="2.52469">
        <ele>117</ele>
        <time>2016-02-22T12:59:28Z</time>
      </trkpt>
      <trkpt lat="48.39166" lon="2.52469">
        <ele>117</ele>
        <time>2016-02-22T13:01:28Z</time>
      </trkpt>
      <trkpt lat="48.39173" lon="2.52465">
        <ele>116</ele>
        <time>2016-02-22T13:03:28Z</time>
      </trkpt>
      <trkpt lat="48.39179" lon="2.52458">
        <ele>115</ele>
        <time>2016-02-22T13:05:28Z</time>
      </trkpt>
      <trkpt lat="48.39186" lon="2.52433">
        <ele>114</ele>
        <time>2016-02-22T13:07:28Z</time>
      </trkpt>
      <trkpt lat="48.39189" lon="2.52411">
        <ele>113</ele>
        <time>2016-02-22T13:09:28Z</time>
      </trkpt>
      <trkpt lat="48.39196" lon="2.52399">
        <ele>111</ele>
        <time>2016-02-22T13:11:28Z</time>
      </trkpt>
      <trkpt lat="48.39205" lon="2.52392">
        <ele>109</ele>
        <time>2016-02-22T13:13:28Z</time>
      </trkpt>
      <trkpt lat="48.3921" lon="2.52381">
        <ele>107</ele>
        <time>2016-02-22T13:15:28Z</time>
      </trkpt>
      <trkpt lat="48.39212" lon="2.52371">
        <ele>106</ele>
        <time>2016-02-22T13:17:28Z</time>
      </trkpt>
      <trkpt lat="48.39214" lon="2.52362">
        <ele>104</ele>
        <time>2016-02-22T13:19:28Z</time>
      </trkpt>
      <trkpt lat="48.39232" lon="2.5234">
        <ele>100</ele>
        <time>2016-02-22T13:21:28Z</time>
      </trkpt>
      <trkpt lat="48.39246" lon="2.52328">
        <ele>97</ele>
        <time>2016-02-22T13:23:28Z</time>
      </trkpt>
      <trkpt lat="48.39253" lon="2.52319">
        <ele>96</ele>
        <time>2016-02-22T13:25:28Z</time>
      </trkpt>
      <trkpt lat="48.39255" lon="2.52308">
        <ele>95</ele>
        <time>2016-02-22T13:27:28Z</time>
      </trkpt>
      <trkpt lat="48.39258" lon="2.52294">
        <ele>94</ele>
        <time>2016-02-22T13:29:28Z</time>
      </trkpt>
      <trkpt lat="48.39259" lon="2.52273">
        <ele>93</ele>
        <time>2016-02-22T13:31:28Z</time>
      </trkpt>
      <trkpt lat="48.39259" lon="2.52246">
        <ele>91</ele>
        <time>2016-02-22T13:33:28Z</time>
      </trkpt>
      <trkpt lat="48.39264" lon="2.52238">
        <ele>92</ele>
        <time>2016-02-22T13:35:28Z</time>
      </trkpt>
      <trkpt lat="48.39271" lon="2.52232">
        <ele>93</ele>
        <time>2016-02-22T13:37:28Z</time>
      </trkpt>
      <trkpt lat="48.39284" lon="2.5223">
        <ele>95</ele>
        <time>2016-02-22T13:39:28Z</time>
      </trkpt>
      <trkpt lat="48.39293" lon="2.52225">
        <ele>96</ele>
        <time>2016-02-22T13:41:28Z</time>
      </trkpt>
      <trkpt lat="48.39301" lon="2.52227">
        <ele>97</ele>
        <time>2016-02-22T13:43:28Z</time>
      </trkpt>
      <trkpt lat="48.39307" lon="2.52223">
        <ele>98</ele>
        <time>2016-02-22T13:45:28Z</time>
      </trkpt>
      <trkpt lat="48.39316" lon="2.52221">
        <ele>100</ele>
        <time>2016-02-22T13:47:28Z</time>
      </trkpt>
      <trkpt lat="48.39323" lon="2.52214">
        <ele>101</ele>
        <time>2016-02-22T13:49:28Z</time>
      </trkpt>
      <trkpt lat="48.39327" lon="2.52206">
        <ele>101</ele>
        <time>2016-02-22T13:51:28Z</time>
      </trkpt>
      <trkpt lat="48.39332" lon="2.52195">
        <ele>102</ele>
        <time>2016-02-22T13:53:28Z</time>
      </trkpt>
      <trkpt lat="48.39337" lon="2.52189">
        <ele>103</ele>
        <time>2016-02-22T13:55:28Z</time>
      </trkpt>
      <trkpt lat="48.39339" lon="2.5218">
        <ele>104</ele>
        <time>2016-02-22T13:57:28Z</time>
      </trkpt>
      <trkpt lat="48.39339" lon="2.52169">
        <ele>104</ele>
        <time>2016-02-22T13:59:28Z</time>
      </trkpt>
      <trkpt lat="48.39343" lon="2.52156">
        <ele>105</ele>
        <time>2016-02-22T14:01:28Z</time>
      </trkpt>
      <trkpt lat="48.39348" lon="2.52147">
        <ele>105</ele>
        <time>2016-02-22T14:03:28Z</time>
      </trkpt>
      <trkpt lat="48.3935" lon="2.52133">
        <ele>106</ele>
        <time>2016-02-22T14:05:28Z</time>
      </trkpt>
      <trkpt lat="48.39355" lon="2.5212">
        <ele>107</ele>
        <time>2016-02-22T14:07:28Z</time>
      </trkpt>
      <trkpt lat="48.39363" lon="2.52112">
        <ele>108</ele>
        <time>2016-02-22T14:09:28Z</time>
      </trkpt>
      <trkpt lat="48.39367" lon="2.52102">
        <ele>109</ele>
        <time>2016-02-22T14:11:28Z</time>
      </trkpt>
      <trkpt lat="48.39369" lon="2.52087">
        <ele>109</ele>
        <time>2016-02-22T14:13:28Z</time>
      </trkpt>
      <trkpt lat="48.39369" lon="2.52075">
        <ele>109</ele>
        <time>2016-02-22T14:15:28Z</time>
      </trkpt>
      <trkpt lat="48.39373" lon="2.52059">
        <ele>110</ele>
        <time>2016-02-22T14:17:28Z</time>
      </trkpt>
      <trkpt lat="48.39386" lon="2.52033">
        <ele>110</ele>
        <time>2016-02-22T14:19:28Z</time>
      </trkpt>
      <trkpt lat="48.39393" lon="2.52015">
        <ele>111</ele>
        <time>2016-02-22T14:21:28Z</time>
      </trkpt>
      <trkpt lat="48.39395" lon="2.51996">
        <ele>110</ele>
        <time>2016-02-22T14:23:28Z</time>
      </trkpt>
      <trkpt lat="48.39398" lon="2.51971">
        <ele>110</ele>
        <time>2016-02-22T14:25:28Z</time>
      </trkpt>
      <trkpt lat="48.39403" lon="2.51941">
        <ele>110</ele>
        <time>2016-02-22T14:27:28Z</time>
      </trkpt>
      <trkpt lat="48.39406" lon="2.51923">
        <ele>110</ele>
        <time>2016-02-22T14:29:28Z</time>
      </trkpt>
      <trkpt lat="48.3941" lon="2.51904">
        <ele>110</ele>
        <time>2016-02-22T14:31:28Z</time>
      </trkpt>
      <trkpt lat="48.39411" lon="2.51891">
        <ele>110</ele>
        <time>2016-02-22T14:33:28Z</time>
      </trkpt>
      <trkpt lat="48.39418" lon="2.51871">
        <ele>109</ele>
        <time>2016-02-22T14:35:28Z</time>
      </trkpt>
      <trkpt lat="48.3942" lon="2.51858">
        <ele>109</ele>
        <time>2016-02-22T14:37:28Z</time>
      </trkpt>
      <trkpt lat="48.39423" lon="2.51844">
        <ele>108</ele>
        <time>2016-02-22T14:39:28Z</time>
      </trkpt>
      <trkpt lat="48.39427" lon="2.51833">
        <ele>107</ele>
        <time>2016-02-22T14:41:28Z</time>
      </trkpt>
      <trkpt lat="48.39429" lon="2.51814">
        <ele>106</ele>
        <time>2016-02-22T14:43:28Z</time>
      </trkpt>
      <trkpt lat="48.39429" lon="2.51796">
        <ele>104</ele>
        <time>2016-02-22T14:45:28Z</time>
      </trkpt>
      <trkpt lat="48.3943" lon="2.51782">
        <ele>103</ele>
        <time>2016-02-22T14:47:28Z</time>
      </trkpt>
      <trkpt lat="48.39437" lon="2.51762">
        <ele>101</ele>
        <time>2016-02-22T14:49:28Z</time>
      </trkpt>
      <trkpt lat="48.39441" lon="2.5175">
        <ele>100</ele>
        <time>2016-02-22T14:51:28Z</time>
      </trkpt>
      <trkpt lat="48.39443" lon="2.51735">
        <ele>99</ele>
        <time>2016-02-22T14:53:28Z</time>
      </trkpt>
      <trkpt lat="48.39446" lon="2.51721">
        <ele>99</ele>
        <time>2016-02-22T14:55:28Z</time>
      </trkpt>
      <trkpt lat="48.39454" lon="2.51706">
        <ele>99</ele>
        <time>2016-02-22T14:57:28Z</time>
      </trkpt>
      <trkpt lat="48.39457" lon="2.51694">
        <ele>98</ele>
        <time>2016-02-22T14:59:28Z</time>
      </trkpt>
      <trkpt lat="48.39455" lon="2.51671">
        <ele>98</ele>
        <time>2016-02-22T15:01:28Z</time>
      </trkpt>
      <trkpt lat="48.39449" lon="2.51642">
        <ele>98</ele>
        <time>2016-02-22T15:03:28Z</time>
      </trkpt>
      <trkpt lat="48.39442" lon="2.51633">
        <ele>99</ele>
        <time>2016-02-22T15:05:28Z</time>
      </trkpt>
      <trkpt lat="48.39436" lon="2.51645">
        <ele>99</ele>
        <time>2016-02-22T15:07:28Z</time>
      </trkpt>
      <trkpt lat="48.39427" lon="2.51646">
        <ele>100</ele>
        <time>2016-02-22T15:09:28Z</time>
      </trkpt>
      <trkpt lat="48.39423" lon="2.5163">
        <ele>100</ele>
        <time>2016-02-22T15:11:28Z</time>
      </trkpt>
      <trkpt lat="48.39422" lon="2.51638">
        <ele>100</ele>
        <time>2016-02-22T15:13:28Z</time>
      </trkpt>
      <trkpt lat="48.39427" lon="2.51651">
        <ele>100</ele>
        <time>2016-02-22T15:15:28Z</time>
      </trkpt>
      <trkpt lat="48.39441" lon="2.51641">
        <ele>99</ele>
        <time>2016-02-22T15:17:28Z</time>
      </trkpt>
      <trkpt lat="48.39448" lon="2.51647">
        <ele>99</ele>
        <time>2016-02-22T15:19:28Z</time>
      </trkpt>
      <trkpt lat="48.39452" lon="2.51663">
        <ele>98</ele>
        <time>2016-02-22T15:21:28Z</time>
      </trkpt>
      <trkpt lat="48.39456" lon="2.51681">
        <ele>98</ele>
        <time>2016-02-22T15:23:28Z</time>
      </trkpt>
      <trkpt lat="48.39451" lon="2.51711">
        <ele>99</ele>
        <time>2016-02-22T15:25:28Z</time>
      </trkpt>
      <trkpt lat="48.39442" lon="2.51723">
        <ele>99</ele>
        <time>2016-02-22T15:27:28Z</time>
      </trkpt>
      <trkpt lat="48.39427" lon="2.51733">
        <ele>100</ele>
        <time>2016-02-22T15:29:28Z</time>
      </trkpt>
      <trkpt lat="48.3942" lon="2.51744">
        <ele>101</ele>
        <time>2016-02-22T15:31:28Z</time>
      </trkpt>
      <trkpt lat="48.39416" lon="2.5176">
        <ele>102</ele>
        <time>2016-02-22T15:33:28Z</time>
      </trkpt>
      <trkpt lat="48.39405" lon="2.51773">
        <ele>103</ele>
        <time>2016-02-22T15:35:28Z</time>
      </trkpt>
      <trkpt lat="48.39388" lon="2.51788">
        <ele>105</ele>
        <time>2016-02-22T15:37:28Z</time>
      </trkpt>
      <trkpt lat="48.39375" lon="2.51804">
        <ele>107</ele>
        <time>2016-02-22T15:39:28Z</time>
      </trkpt>
      <trkpt lat="48.39363" lon="2.51824">
        <ele>109</ele>
        <time>2016-02-22T15:41:28Z</time>
      </trkpt>
      <trkpt lat="48.39356" lon="2.51844">
        <ele>110</ele>
        <time>2016-02-22T15:43:28Z</time>
      </trkpt>
      <trkpt lat="48.39354" lon="2.51863">
        <ele>109</ele>
        <time>2016-02-22T15:45:28Z</time>
      </trkpt>
      <trkpt lat="48.39351" lon="2.51875">
        <ele>109</ele>
        <time>2016-02-22T15:47:28Z</time>
      </trkpt>
      <trkpt lat="48.39345" lon="2.51887">
        <ele>108</ele>
        <time>2016-02-22T15:49:28Z</time>
      </trkpt>
      <trkpt lat="48.39333" lon="2.51893">
        <ele>107</ele>
        <time>2016-02-22T15:51:28Z</time>
      </trkpt>
      <trkpt lat="48.39324" lon="2.51896">
        <ele>107</ele>
        <time>2016-02-22T15:53:28Z</time>
      </trkpt>
      <trkpt lat="48.39314" lon="2.51906">
        <ele>106</ele>
        <time>2016-02-22T15:55:28Z</time>
      </trkpt>
      <trkpt lat="48.39299" lon="2.51919">
        <ele>105</ele>
        <time>2016-02-22T15:57:28Z</time>
      </trkpt>
      <trkpt lat="48.39286" lon="2.51936">
        <ele>104</ele>
        <time>2016-02-22T15:59:28Z</time>
      </trkpt>
      <trkpt lat="48.39273" lon="2.51953">
        <ele>101</ele>
        <time>2016-02-22T16:01:28Z</time>
      </trkpt>
      <trkpt lat="48.39264" lon="2.5197">
        <ele>99</ele>
        <time>2016-02-22T16:03:28Z</time>
      </trkpt>
      <trkpt lat="48.39258" lon="2.5199">
        <ele>96</ele>
        <time>2016-02-22T16:05:28Z</time>
      </trkpt>
      <trkpt lat="48.39253" lon="2.52008">
        <ele>94</ele>
        <time>2016-02-22T16:07:28Z</time>
      </trkpt>
      <trkpt lat="48.39249" lon="2.52022">
        <ele>93</ele>
        <time>2016-02-22T16:09:28Z</time>
      </trkpt>
      <trkpt lat="48.39244" lon="2.52036">
        <ele>91</ele>
        <time>2016-02-22T16:11:28Z</time>
      </trkpt>
      <trkpt lat="48.39237" lon="2.52049">
        <ele>90</ele>
        <time>2016-02-22T16:13:28Z</time>
      </trkpt>
      <trkpt lat="48.39223" lon="2.52064">
        <ele>87</ele>
        <time>2016-02-22T16:15:28Z</time>
      </trkpt>
      <trkpt lat="48.39216" lon="2.52074">
        <ele>86</ele>
        <time>2016-02-22T16:17:28Z</time>
      </trkpt>
      <trkpt lat="48.39209" lon="2.52089">
        <ele>85</ele>
        <time>2016-02-22T16:19:28Z</time>
      </trkpt>
      <trkpt lat="48.39205" lon="2.52104">
        <ele>84</ele>
        <time>2016-02-22T16:21:28Z</time>
      </trkpt>
      <trkpt lat="48.3919" lon="2.52111">
        <ele>83</ele>
        <time>2016-02-22T16:23:28Z</time>
      </trkpt>
      <trkpt lat="48.39176" lon="2.52118">
        <ele>82</ele>
        <time>2016-02-22T16:25:28Z</time>
      </trkpt>
      <trkpt lat="48.39166" lon="2.52117">
        <ele>81</ele>
        <time>2016-02-22T16:27:28Z</time>
      </trkpt>
      <trkpt lat="48.39164" lon="2.52106">
        <ele>80</ele>
        <time>2016-02-22T16:29:28Z</time>
      </trkpt>
      <trkpt lat="48.39155" lon="2.52091">
        <ele>79</ele>
        <time>2016-02-22T16:31:28Z</time>
      </trkpt>
      <trkpt lat="48.39145" lon="2.52083">
        <ele>78</ele>
        <time>2016-02-22T16:33:28Z</time>
      </trkpt>
      <trkpt lat="48.39134" lon="2.52075">
        <ele>78</ele>
        <time>2016-02-22T16:35:28Z</time>
      </trkpt>
      <trkpt lat="48.3912" lon="2.52065">
        <ele>78</ele>
        <time>2016-02-22T16:37:28Z</time>
      </trkpt>
      <trkpt lat="48.39111" lon="2.5206">
        <ele>78</ele>
        <time>2016-02-22T16:39:28Z</time>
      </trkpt>
      <trkpt lat="48.39099" lon="2.5206">
        <ele>77</ele>
        <time>2016-02-22T16:41:28Z</time>
      </trkpt>
      <trkpt lat="48.39084" lon="2.52064">
        <ele>77</ele>
        <time>2016-02-22T16:43:28Z</time>
      </trkpt>
      <trkpt lat="48.3907" lon="2.52063">
        <ele>77</ele>
        <time>2016-02-22T16:45:28Z</time>
      </trkpt>
      <trkpt lat="48.39059" lon="2.5206">
        <ele>78</ele>
        <time>2016-02-22T16:47:28Z</time>
      </trkpt>
      <trkpt lat="48.39051" lon="2.52057">
        <ele>78</ele>
        <time>2016-02-22T16:49:28Z</time>
      </trkpt>
      <trkpt lat="48.39041" lon="2.52047">
        <ele>78</ele>
        <time>2016-02-22T16:51:28Z</time>
      </trkpt>
      <trkpt lat="48.39036" lon="2.52041">
        <ele>78</ele>
        <time>2016-02-22T16:53:28Z</time>
      </trkpt>
      <trkpt lat="48.39021" lon="2.52041">
        <ele>78</ele>
        <time>2016-02-22T16:55:28Z</time>
      </trkpt>
      <trkpt lat="48.3901" lon="2.52044">
        <ele>78</ele>
        <time>2016-02-22T16:57:28Z</time>
      </trkpt>
      <trkpt lat="48.38999" lon="2.52049">
        <ele>79</ele>
        <time>2016-02-22T16:59:28Z</time>
      </trkpt>
      <trkpt lat="48.38994" lon="2.52055">
        <ele>79</ele>
        <time>2016-02-22T17:01:28Z</time>
      </trkpt>
      <trkpt lat="48.38984" lon="2.52058">
        <ele>79</ele>
        <time>2016-02-22T17:03:28Z</time>
      </trkpt>
      <trkpt lat="48.38978" lon="2.52065">
        <ele>80</ele>
        <time>2016-02-22T17:05:28Z</time>
      </trkpt>
      <trkpt lat="48.38975" lon="2.52091">
        <ele>81</ele>
        <time>2016-02-22T17:07:28Z</time>
      </trkpt>
      <trkpt lat="48.38968" lon="2.52105">
        <ele>83</ele>
        <time>2016-02-22T17:09:28Z</time>
      </trkpt>
      <trkpt lat="48.38964" lon="2.5212">
        <ele>85</ele>
        <time>2016-02-22T17:11:28Z</time>
      </trkpt>
      <trkpt lat="48.38958" lon="2.52138">
        <ele>87</ele>
        <time>2016-02-22T17:13:28Z</time>
      </trkpt>
      <trkpt lat="48.38951" lon="2.5215">
        <ele>89</ele>
        <time>2016-02-22T17:15:28Z</time>
      </trkpt>
      <trkpt lat="48.38943" lon="2.52161">
        <ele>90</ele>
        <time>2016-02-22T17:17:28Z</time>
      </trkpt>
      <trkpt lat="48.38939" lon="2.52173">
        <ele>92</ele>
        <time>2016-02-22T17:19:28Z</time>
      </trkpt>
      <trkpt lat="48.38938" lon="2.52192">
        <ele>95</ele>
        <time>2016-02-22T17:21:28Z</time>
      </trkpt>
      <trkpt lat="48.38938" lon="2.52216">
        <ele>99</ele>
        <time>2016-02-22T17:23:28Z</time>
      </trkpt>
      <trkpt lat="48.38937" lon="2.52227">
        <ele>101</ele>
        <time>2016-02-22T17:25:28Z</time>
      </trkpt>
      <trkpt lat="48.38932" lon="2.52238">
        <ele>103</ele>
        <time>2016-02-22T17:27:28Z</time>
      </trkpt>
      <trkpt lat="48.38932" lon="2.52247">
        <ele>105</ele>
        <time>2016-02-22T17:29:28Z</time>
      </trkpt>
      <trkpt lat="48.38933" lon="2.5226">
        <ele>106</ele>
        <time>2016-02-22T17:31:28Z</time>
      </trkpt>
      <trkpt lat="48.38927" lon="2.5227">
        <ele>107</ele>
        <time>2016-02-22T17:33:28Z</time>
      </trkpt>
      <trkpt lat="48.38915" lon="2.52278">
        <ele>109</ele>
        <time>2016-02-22T17:35:28Z</time>
      </trkpt>
      <trkpt lat="48.3891" lon="2.5227">
        <ele>108</ele>
        <time>2016-02-22T17:37:28Z</time>
      </trkpt>
      <trkpt lat="48.38907" lon="2.52252">
        <ele>106</ele>
        <time>2016-02-22T17:39:28Z</time>
      </trkpt>
      <trkpt lat="48.38901" lon="2.52242">
        <ele>104</ele>
        <time>2016-02-22T17:41:28Z</time>
      </trkpt>
      <trkpt lat="48.38884" lon="2.52237">
        <ele>102</ele>
        <time>2016-02-22T17:43:28Z</time>
      </trkpt>
      <trkpt lat="48.38865" lon="2.52236">
        <ele>101</ele>
        <time>2016-02-22T17:45:28Z</time>
      </trkpt>
      <trkpt lat="48.38855" lon="2.52239">
        <ele>100</ele>
        <time>2016-02-22T17:47:28Z</time>
      </trkpt>
      <trkpt lat="48.38846" lon="2.52246">
        <ele>101</ele>
        <time>2016-02-22T17:49:28Z</time>
      </trkpt>
      <trkpt lat="48.38837" lon="2.52249">
        <ele>100</ele>
        <time>2016-02-22T17:51:28Z</time>
      </trkpt>
      <trkpt lat="48.38829" lon="2.52248">
        <ele>99</ele>
        <time>2016-02-22T17:53:28Z</time>
      </trkpt>
      <trkpt lat="48.38822" lon="2.52238">
        <ele>96</ele>
        <time>2016-02-22T17:55:28Z</time>
      </trkpt>
      <trkpt lat="48.38811" lon="2.52235">
        <ele>94</ele>
        <time>2016-02-22T17:57:28Z</time>
      </trkpt>
      <trkpt lat="48.38801" lon="2.52235">
        <ele>92</ele>
        <time>2016-02-22T17:59:28Z</time>
      </trkpt>
      <trkpt lat="48.38787" lon="2.52242">
        <ele>90</ele>
        <time>2016-02-22T18:01:28Z</time>
      </trkpt>
      <trkpt lat="48.38775" lon="2.52257">
        <ele>89</ele>
        <time>2016-02-22T18:03:28Z</time>
      </trkpt>
      <trkpt lat="48.38763" lon="2.52274">
        <ele>87</ele>
        <time>2016-02-22T18:05:28Z</time>
      </trkpt>
      <trkpt lat="48.38755" lon="2.52296">
        <ele>86</ele>
        <time>2016-02-22T18:07:28Z</time>
      </trkpt>
      <trkpt lat="48.38745" lon="2.52311">
        <ele>84</ele>
        <time>2016-02-22T18:09:28Z</time>
      </trkpt>
      <trkpt lat="48.38732" lon="2.5232">
        <ele>84</ele>
        <time>2016-02-22T18:11:28Z</time>
      </trkpt>
      <trkpt lat="48.38723" lon="2.52322">
        <ele>83</ele>
        <time>2016-02-22T18:13:28Z</time>
      </trkpt>
      <trkpt lat="48.38709" lon="2.52322">
        <ele>82</ele>
        <time>2016-02-22T18:15:28Z</time>
      </trkpt>
      <trkpt lat="48.38695" lon="2.52318">
        <ele>81</ele>
        <time>2016-02-22T18:17:28Z</time>
      </trkpt>
      <trkpt lat="48.3869" lon="2.52354">
        <ele>81</ele>
        <time>2016-02-22T18:19:28Z</time>
      </trkpt>
      <trkpt lat="48.38687" lon="2.52396">
        <ele>81</ele>
        <time>2016-02-22T18:21:28Z</time>
      </trkpt>
      <trkpt lat="48.3869" lon="2.5247">
        <ele>82</ele>
        <time>2016-02-22T18:23:28Z</time>
      </trkpt>
      <trkpt lat="48.38695" lon="2.52534">
        <ele>84</ele>
        <time>2016-02-22T18:25:28Z</time>
      </trkpt>
      <trkpt lat="48.38697" lon="2.52561">
        <ele>85</ele>
        <time>2016-02-22T18:27:28Z</time>
      </trkpt>
      <trkpt lat="48.38697" lon="2.52572">
        <ele>85</ele>
        <time>2016-02-22T18:29:28Z</time>
      </trkpt>
      <trkpt lat="48.38696" lon="2.52583">
        <ele>85</ele>
        <time>2016-02-22T18:31:28Z</time>
      </trkpt>
      <trkpt lat="48.38694" lon="2.52596">
        <ele>86</ele>
        <time>2016-02-22T18:33:28Z</time>
      </trkpt>
      <trkpt lat="48.38696" lon="2.52616">
        <ele>86</ele>
        <time>2016-02-22T18:35:28Z</time>
      </trkpt>
      <trkpt lat="48.38699" lon="2.52634">
        <ele>87</ele>
        <time>2016-02-22T18:37:28Z</time>
      </trkpt>
      <trkpt lat="48.38701" lon="2.52653">
        <ele>88</ele>
        <time>2016-02-22T18:39:28Z</time>
      </trkpt>
      <trkpt lat="48.38707" lon="2.52685">
        <ele>89</ele>
        <time>2016-02-22T18:41:28Z</time>
      </trkpt>
      <trkpt lat="48.38711" lon="2.5272">
        <ele>89</ele>
        <time>2016-02-22T18:43:28Z</time>
      </trkpt>
      <trkpt lat="48.38715" lon="2.52756">
        <ele>89</ele>
        <time>2016-02-22T18:45:28Z</time>
      </trkpt>
      <trkpt lat="48.38718" lon="2.52782">
        <ele>88</ele>
        <time>2016-02-22T18:47:28Z</time>
      </trkpt>
      <trkpt lat="48.38714" lon="2.52793">
        <ele>88</ele>
        <time>2016-02-22T18:49:28Z</time>
      </trkpt>
      <trkpt lat="48.38706" lon="2.52801">
        <ele>87</ele>
        <time>2016-02-22T18:51:28Z</time>
      </trkpt>
      <trkpt lat="48.38701" lon="2.52817">
        <ele>87</ele>
        <time>2016-02-22T18:53:28Z</time>
      </trkpt>
      <trkpt lat="48.38699" lon="2.52832">
        <ele>86</ele>
        <time>2016-02-22T18:55:28Z</time>
      </trkpt>
      <trkpt lat="48.38694" lon="2.52846">
        <ele>85</ele>
        <time>2016-02-22T18:57:28Z</time>
      </trkpt>
      <trkpt lat="48.38684" lon="2.52856">
        <ele>84</ele>
        <time>2016-02-22T18:59:28Z</time>
      </trkpt>
      <trkpt lat="48.38679" lon="2.5286">
        <ele>84</ele>
        <time>2016-02-22T19:01:28Z</time>
      </trkpt>
      <trkpt lat="48.38674" lon="2.52876">
        <ele>83</ele>
        <time>2016-02-22T19:03:28Z</time>
      </trkpt>
      <trkpt lat="48.38669" lon="2.5289">
        <ele>82</ele>
        <time>2016-02-22T19:05:28Z</time>
      </trkpt>
      <trkpt lat="48.38663" lon="2.52898">
        <ele>82</ele>
        <time>2016-02-22T19:07:28Z</time>
      </trkpt>
      <trkpt lat="48.38658" lon="2.52909">
        <ele>81</ele>
        <time>2016-02-22T19:09:28Z</time>
      </trkpt>
      <trkpt lat="48.38651" lon="2.52918">
        <ele>81</ele>
        <time>2016-02-22T19:11:28Z</time>
      </trkpt>
      <trkpt lat="48.38641" lon="2.52922">
        <ele>82</ele>
        <time>2016-02-22T19:13:28Z</time>
      </trkpt>
      <trkpt lat="48.38635" lon="2.5293">
        <ele>82</ele>
        <time>2016-02-22T19:15:28Z</time>
      </trkpt>
      <trkpt lat="48.38625" lon="2.52932">
        <ele>83</ele>
        <time>2016-02-22T19:17:28Z</time>
      </trkpt>
      <trkpt lat="48.38616" lon="2.52932">
        <ele>83</ele>
        <time>2016-02-22T19:19:28Z</time>
      </trkpt>
      <trkpt lat="48.38603" lon="2.52939">
        <ele>84</ele>
        <time>2016-02-22T19:21:28Z</time>
      </trkpt>
      <trkpt lat="48.386" lon="2.52948">
        <ele>84</ele>
        <time>2016-02-22T19:23:28Z</time>
      </trkpt>
      <trkpt lat="48.38585" lon="2.52952">
        <ele>85</ele>
        <time>2016-02-22T19:25:28Z</time>
      </trkpt>
      <trkpt lat="48.38576" lon="2.52948">
        <ele>85</ele>
        <time>2016-02-22T19:27:28Z</time>
      </trkpt>
      <trkpt lat="48.38565" lon="2.52945">
        <ele>85</ele>
        <time>2016-02-22T19:29:28Z</time>
      </trkpt>
      <trkpt lat="48.3855" lon="2.52947">
        <ele>84</ele>
        <time>2016-02-22T19:31:28Z</time>
      </trkpt>
      <trkpt lat="48.38538" lon="2.52948">
        <ele>84</ele>
        <time>2016-02-22T19:33:28Z</time>
      </trkpt>
      <trkpt lat="48.38529" lon="2.52948">
        <ele>83</ele>
        <time>2016-02-22T19:35:28Z</time>
      </trkpt>
      <trkpt lat="48.38523" lon="2.52936">
        <ele>83</ele>
        <time>2016-02-22T19:37:28Z</time>
      </trkpt>
      <trkpt lat="48.38522" lon="2.52921">
        <ele>83</ele>
        <time>2016-02-22T19:39:28Z</time>
      </trkpt>
      <trkpt lat="48.38518" lon="2.5291">
        <ele>83</ele>
        <time>2016-02-22T19:41:28Z</time>
      </trkpt>
      <trkpt lat="48.38508" lon="2.52904">
        <ele>82</ele>
        <time>2016-02-22T19:43:28Z</time>
      </trkpt>
      <trkpt lat="48.38492" lon="2.52899">
        <ele>81</ele>
        <time>2016-02-22T19:45:28Z</time>
      </trkpt>
      <trkpt lat="48.38479" lon="2.5289">
        <ele>80</ele>
        <time>2016-02-22T19:47:28Z</time>
      </trkpt>
      <trkpt lat="48.38461" lon="2.52883">
        <ele>79</ele>
        <time>2016-02-22T19:49:28Z</time>
      </trkpt>
      <trkpt lat="48.38441" lon="2.52876">
        <ele>78</ele>
        <time>2016-02-22T19:51:28Z</time>
      </trkpt>
      <trkpt lat="48.38426" lon="2.52868">
        <ele>77</ele>
        <time>2016-02-22T19:53:28Z</time>
      </trkpt>
      <trkpt lat="48.3841" lon="2.52856">
        <ele>76</ele>
        <time>2016-02-22T19:55:28Z</time>
      </trkpt>
      <trkpt lat="48.38397" lon="2.52847">
        <ele>76</ele>
        <time>2016-02-22T19:57:28Z</time>
      </trkpt>
      <trkpt lat="48.38383" lon="2.52839">
        <ele>75</ele>
        <time>2016-02-22T19:59:28Z</time>
      </trkpt>
      <trkpt lat="48.38371" lon="2.52836">
        <ele>75</ele>
        <time>2016-02-22T20:01:28Z</time>
      </trkpt>
      <trkpt lat="48.38351" lon="2.52779">
        <ele>73</ele>
        <time>2016-02-22T20:03:28Z</time>
      </trkpt>
      <trkpt lat="48.38341" lon="2.52754">
        <ele>73</ele>
        <time>2016-02-22T20:05:28Z</time>
      </trkpt>
      <trkpt lat="48.38334" lon="2.52763">
        <ele>73</ele>
        <time>2016-02-22T20:07:28Z</time>
      </trkpt>
      <trkpt lat="48.38333" lon="2.52775">
        <ele>73</ele>
        <time>2016-02-22T20:09:28Z</time>
      </trkpt>
      <trkpt lat="48.38327" lon="2.52845">
        <ele>74</ele>
        <time>2016-02-22T20:11:28Z</time>
      </trkpt>
      <trkpt lat="48.38321" lon="2.52852">
        <ele>74</ele>
        <time>2016-02-22T20:13:28Z</time>
      </trkpt>
      <trkpt lat="48.38306" lon="2.52906">
        <ele>75</ele>
        <time>2016-02-22T20:15:28Z</time>
      </trkpt>
      <trkpt lat="48.38295" lon="2.52944">
        <ele>74</ele>
        <time>2016-02-22T20:17:28Z</time>
      </trkpt>
      <trkpt lat="48.38289" lon="2.52959">
        <ele>74</ele>
        <time>2016-02-22T20:19:28Z</time>
      </trkpt>
      <trkpt lat="48.38274" lon="2.52994">
        <ele>72</ele>
        <time>2016-02-22T20:21:28Z</time>
      </trkpt>
      <trkpt lat="48.38259" lon="2.53031">
        <ele>72</ele>
        <time>2016-02-22T20:23:28Z</time>
      </trkpt>
      <trkpt lat="48.38246" lon="2.53053">
        <ele>72</ele>
        <time>2016-02-22T20:25:28Z</time>
      </trkpt>
      <trkpt lat="48.38235" lon="2.53087">
        <ele>72</ele>
        <time>2016-02-22T20:27:28Z</time>
      </trkpt>
      <trkpt lat="48.38226" lon="2.53099">
        <ele>72</ele>
        <time>2016-02-22T20:29:28Z</time>
      </trkpt>
      <trkpt lat="48.38212" lon="2.53124">
        <ele>72</ele>
        <time>2016-02-22T20:31:28Z</time>
      </trkpt>
      <trkpt lat="48.38206" lon="2.5314">
        <ele>72</ele>
        <time>2016-02-22T20:33:28Z</time>
      </trkpt>
      <trkpt lat="48.382" lon="2.53195">
        <ele>72</ele>
        <time>2016-02-22T20:35:28Z</time>
      </trkpt>
      <trkpt lat="48.38192" lon="2.53264">
        <ele>72</ele>
        <time>2016-02-22T20:37:28Z</time>
      </trkpt>
      <trkpt lat="48.38195" lon="2.53296">
        <ele>72</ele>
        <time>2016-02-22T20:39:28Z</time>
      </trkpt>
      <trkpt lat="48.38198" lon="2.53316">
        <ele>72</ele>
        <time>2016-02-22T20:41:28Z</time>
      </trkpt>
      <trkpt lat="48.38198" lon="2.53334">
        <ele>72</ele>
        <time>2016-02-22T20:43:28Z</time>
      </trkpt>
      <trkpt lat="48.382" lon="2.53349">
        <ele>72</ele>
        <time>2016-02-22T20:45:28Z</time>
      </trkpt>
      <trkpt lat="48.38183" lon="2.534">
        <ele>72</ele>
        <time>2016-02-22T20:47:28Z</time>
      </trkpt>
      <trkpt lat="48.38171" lon="2.53438">
        <ele>72</ele>
        <time>2016-02-22T20:49:28Z</time>
      </trkpt>
      <trkpt lat="48.38157" lon="2.53478">
        <ele>72</ele>
        <time>2016-02-22T20:51:28Z</time>
      </trkpt>
      <trkpt lat="48.38143" lon="2.53507">
        <ele>73</ele>
        <time>2016-02-22T20:53:28Z</time>
      </trkpt>
      <trkpt lat="48.38132" lon="2.53529">
        <ele>73</ele>
        <time>2016-02-22T20:55:28Z</time>
      </trkpt>
      <trkpt lat="48.38165" lon="2.53563">
        <ele>73</ele>
        <time>2016-02-22T20:57:28Z</time>
      </trkpt>
      <trkpt lat="48.38206" lon="2.53589">
        <ele>73</ele>
        <time>2016-02-22T20:59:28Z</time>
      </trkpt>
      <trkpt lat="48.38253" lon="2.53622">
        <ele>74</ele>
        <time>2016-02-22T21:01:28Z</time>
      </trkpt>
      <trkpt lat="48.38271" lon="2.53642">
        <ele>75</ele>
        <time>2016-02-22T21:03:28Z</time>
      </trkpt>
      <trkpt lat="48.38293" lon="2.53664">
        <ele>76</ele>
        <time>2016-02-22T21:05:28Z</time>
      </trkpt>
      <trkpt lat="48.38302" lon="2.53696">
        <ele>77</ele>
        <time>2016-02-22T21:07:28Z</time>
      </trkpt>
      <trkpt lat="48.38308" lon="2.53707">
        <ele>77</ele>
        <time>2016-02-22T21:09:28Z</time>
      </trkpt>
      <trkpt lat="48.38325" lon="2.53715">
        <ele>78</ele>
        <time>2016-02-22T21:11:28Z</time>
      </trkpt>
      <trkpt lat="48.38335" lon="2.53738">
        <ele>79</ele>
        <time>2016-02-22T21:13:28Z</time>
      </trkpt>
      <trkpt lat="48.38348" lon="2.53744">
        <ele>81</ele>
        <time>2016-02-22T21:15:28Z</time>
      </trkpt>
      <trkpt lat="48.38354" lon="2.53754">
        <ele>83</ele>
        <time>2016-02-22T21:17:28Z</time>
      </trkpt>
      <trkpt lat="48.38398" lon="2.53779">
        <ele>92</ele>
        <time>2016-02-22T21:19:28Z</time>
      </trkpt>
      <trkpt lat="48.38389" lon="2.53833">
        <ele>94</ele>
        <time>2016-02-22T21:21:28Z</time>
      </trkpt>
      <trkpt lat="48.38365" lon="2.53891">
        <ele>91</ele>
        <time>2016-02-22T21:23:28Z</time>
      </trkpt>
      <trkpt lat="48.38357" lon="2.53915">
        <ele>90</ele>
        <time>2016-02-22T21:25:28Z</time>
      </trkpt>
      <trkpt lat="48.38346" lon="2.53931">
        <ele>89</ele>
        <time>2016-02-22T21:27:28Z</time>
      </trkpt>
      <trkpt lat="48.3834" lon="2.5394">
        <ele>88</ele>
        <time>2016-02-22T21:29:28Z</time>
      </trkpt>
      <trkpt lat="48.38335" lon="2.53971">
        <ele>87</ele>
        <time>2016-02-22T21:31:28Z</time>
      </trkpt>
      <trkpt lat="48.38325" lon="2.54">
        <ele>86</ele>
        <time>2016-02-22T21:33:28Z</time>
      </trkpt>
      <trkpt lat="48.38314" lon="2.54023">
        <ele>85</ele>
        <time>2016-02-22T21:35:28Z</time>
      </trkpt>
      <trkpt lat="48.383" lon="2.54044">
        <ele>84</ele>
        <time>2016-02-22T21:37:28Z</time>
      </trkpt>
      <trkpt lat="48.38307" lon="2.54058">
        <ele>85</ele>
        <time>2016-02-22T21:39:28Z</time>
      </trkpt>
      <trkpt lat="48.38347" lon="2.54084">
        <ele>90</ele>
        <time>2016-02-22T21:41:28Z</time>
      </trkpt>
      <trkpt lat="48.38364" lon="2.54121">
        <ele>95</ele>
        <time>2016-02-22T21:43:28Z</time>
      </trkpt>
      <trkpt lat="48.38379" lon="2.54136">
        <ele>97</ele>
        <time>2016-02-22T21:45:28Z</time>
      </trkpt>
      <trkpt lat="48.38386" lon="2.54175">
        <ele>100</ele>
        <time>2016-02-22T21:47:28Z</time>
      </trkpt>
      <trkpt lat="48.38396" lon="2.542">
        <ele>103</ele>
        <time>2016-02-22T21:49:28Z</time>
      </trkpt>
      <trkpt lat="48.38404" lon="2.54208">
        <ele>105</ele>
        <time>2016-02-22T21:51:28Z</time>
      </trkpt>
      <trkpt lat="48.38408" lon="2.54218">
        <ele>106</ele>
        <time>2016-02-22T21:53:28Z</time>
      </trkpt>
      <trkpt lat="48.38408" lon="2.54228">
        <ele>107</ele>
        <time>2016-02-22T21:55:28Z</time>
      </trkpt>
      <trkpt lat="48.38411" lon="2.54246">
        <ele>108</ele>
        <time>2016-02-22T21:57:28Z</time>
      </trkpt>
      <trkpt lat="48.38411" lon="2.54261">
        <ele>109</ele>
        <time>2016-02-22T21:59:28Z</time>
      </trkpt>
      <trkpt lat="48.38411" lon="2.54282">
        <ele>110</ele>
        <time>2016-02-22T22:01:28Z</time>
      </trkpt>
      <trkpt lat="48.3841" lon="2.54306">
        <ele>111</ele>
        <time>2016-02-22T22:03:28Z</time>
      </trkpt>
      <trkpt lat="48.38416" lon="2.54326">
        <ele>113</ele>
        <time>2016-02-22T22:05:28Z</time>
      </trkpt>
      <trkpt lat="48.38421" lon="2.54335">
        <ele>113</ele>
        <time>2016-02-22T22:07:28Z</time>
      </trkpt>
      <trkpt lat="48.38419" lon="2.54362">
        <ele>115</ele>
        <time>2016-02-22T22:09:28Z</time>
      </trkpt>
      <trkpt lat="48.3842" lon="2.54392">
        <ele>117</ele>
        <time>2016-02-22T22:11:28Z</time>
      </trkpt>
      <trkpt lat="48.38423" lon="2.54406">
        <ele>117</ele>
        <time>2016-02-22T22:13:28Z</time>
      </trkpt>
      <trkpt lat="48.38428" lon="2.54427">
        <ele>118</ele>
        <time>2016-02-22T22:15:28Z</time>
      </trkpt>
      <trkpt lat="48.38435" lon="2.54454">
        <ele>118</ele>
        <time>2016-02-22T22:17:28Z</time>
      </trkpt>
      <trkpt lat="48.38436" lon="2.54467">
        <ele>119</ele>
        <time>2016-02-22T22:19:28Z</time>
      </trkpt>
      <trkpt lat="48.38439" lon="2.54485">
        <ele>119</ele>
        <time>2016-02-22T22:21:28Z</time>
      </trkpt>
      <trkpt lat="48.38443" lon="2.54498">
        <ele>119</ele>
        <time>2016-02-22T22:23:28Z</time>
      </trkpt>
      <trkpt lat="48.38453" lon="2.54514">
        <ele>119</ele>
        <time>2016-02-22T22:25:28Z</time>
      </trkpt>
      <trkpt lat="48.38467" lon="2.54531">
        <ele>119</ele>
        <time>2016-02-22T22:27:28Z</time>
      </trkpt>
      <trkpt lat="48.38476" lon="2.54548">
        <ele>119</ele>
        <time>2016-02-22T22:29:28Z</time>
      </trkpt>
      <trkpt lat="48.38484" lon="2.54568">
        <ele>119</ele>
        <time>2016-02-22T22:31:28Z</time>
      </trkpt>
      <trkpt lat="48.38481" lon="2.54585">
        <ele>119</ele>
        <time>2016-02-22T22:33:28Z</time>
      </trkpt>
      <trkpt lat="48.38483" lon="2.54601">
        <ele>119</ele>
        <time>2016-02-22T22:35:28Z</time>
      </trkpt>
      <trkpt lat="48.38501" lon="2.54647">
        <ele>117</ele>
        <time>2016-02-22T22:37:28Z</time>
      </trkpt>
      <trkpt lat="48.38506" lon="2.5466">
        <ele>117</ele>
        <time>2016-02-22T22:39:28Z</time>
      </trkpt>
      <trkpt lat="48.38521" lon="2.54687">
        <ele>117</ele>
        <time>2016-02-22T22:41:28Z</time>
      </trkpt>
      <trkpt lat="48.38527" lon="2.54707">
        <ele>116</ele>
        <time>2016-02-22T22:43:28Z</time>
      </trkpt>
      <trkpt lat="48.38535" lon="2.54731">
        <ele>116</ele>
        <time>2016-02-22T22:45:28Z</time>
      </trkpt>
      <trkpt lat="48.38558" lon="2.54768">
        <ele>116</ele>
        <time>2016-02-22T22:47:28Z</time>
      </trkpt>
      <trkpt lat="48.3858" lon="2.54807">
        <ele>117</ele>
        <time>2016-02-22T22:49:28Z</time>
      </trkpt>
      <trkpt lat="48.38588" lon="2.54832">
        <ele>118</ele>
        <time>2016-02-22T22:51:28Z</time>
      </trkpt>
      <trkpt lat="48.38599" lon="2.54746">
        <ele>116</ele>
        <time>2016-02-22T22:53:28Z</time>
      </trkpt>
      <trkpt lat="48.38609" lon="2.54682">
        <ele>117</ele>
        <time>2016-02-22T22:55:28Z</time>
      </trkpt>
      <trkpt lat="48.38623" lon="2.54617">
        <ele>117</ele>
        <time>2016-02-22T22:57:28Z</time>
      </trkpt>
      <trkpt lat="48.38632" lon="2.5457">
        <ele>117</ele>
        <time>2016-02-22T22:59:28Z</time>
      </trkpt>
      <trkpt lat="48.38637" lon="2.54554">
        <ele>118</ele>
        <time>2016-02-22T23:01:28Z</time>
      </trkpt>
      <trkpt lat="48.38641" lon="2.54524">
        <ele>118</ele>
        <time>2016-02-22T23:03:28Z</time>
      </trkpt>
      <trkpt lat="48.38652" lon="2.54499">
        <ele>119</ele>
        <time>2016-02-22T23:05:28Z</time>
      </trkpt>
      <trkpt lat="48.38665" lon="2.54434">
        <ele>117</ele>
        <time>2016-02-22T23:07:28Z</time>
      </trkpt>
      <trkpt lat="48.38677" lon="2.54389">
        <ele>117</ele>
        <time>2016-02-22T23:09:28Z</time>
      </trkpt>
      <trkpt lat="48.38687" lon="2.54368">
        <ele>117</ele>
        <time>2016-02-22T23:11:28Z</time>
      </trkpt>
      <trkpt lat="48.38692" lon="2.54346">
        <ele>117</ele>
        <time>2016-02-22T23:13:28Z</time>
      </trkpt>
      <trkpt lat="48.38712" lon="2.54324">
        <ele>118</ele>
        <time>2016-02-22T23:15:28Z</time>
      </trkpt>
      <trkpt lat="48.38731" lon="2.54303">
        <ele>118</ele>
        <time>2016-02-22T23:17:28Z</time>
      </trkpt>
      <trkpt lat="48.38741" lon="2.54296">
        <ele>118</ele>
        <time>2016-02-22T23:19:28Z</time>
      </trkpt>
      <trkpt lat="48.38747" lon="2.54282">
        <ele>118</ele>
        <time>2016-02-22T23:21:28Z</time>
      </trkpt>
      <trkpt lat="48.38762" lon="2.54267">
        <ele>117</ele>
        <time>2016-02-22T23:23:28Z</time>
      </trkpt>
      <trkpt lat="48.38765" lon="2.54258">
        <ele>116</ele>
        <time>2016-02-22T23:25:28Z</time>
      </trkpt>
      <trkpt lat="48.38766" lon="2.54236">
        <ele>116</ele>
        <time>2016-02-22T23:27:28Z</time>
      </trkpt>
      <trkpt lat="48.38767" lon="2.54225">
        <ele>116</ele>
        <time>2016-02-22T23:29:28Z</time>
      </trkpt>
      <trkpt lat="48.38763" lon="2.54203">
        <ele>117</ele>
        <time>2016-02-22T23:31:28Z</time>
      </trkpt>
      <trkpt lat="48.38767" lon="2.54197">
        <ele>116</ele>
        <time>2016-02-22T23:33:28Z</time>
      </trkpt>
      <trkpt lat="48.38774" lon="2.54193">
        <ele>116</ele>
        <time>2016-02-22T23:35:28Z</time>
      </trkpt>
      <trkpt lat="48.38791" lon="2.54194">
        <ele>115</ele>
        <time>2016-02-22T23:37:28Z</time>
      </trkpt>
      <trkpt lat="48.38797" lon="2.54187">
        <ele>115</ele>
        <time>2016-02-22T23:39:28Z</time>
      </trkpt>
      <trkpt lat="48.38802" lon="2.54182">
        <ele>115</ele>
        <time>2016-02-22T23:41:28Z</time>
      </trkpt>
      <trkpt lat="48.38807" lon="2.54152">
        <ele>115</ele>
        <time>2016-02-22T23:43:28Z</time>
      </trkpt>
      <trkpt lat="48.38808" lon="2.54129">
        <ele>116</ele>
        <time>2016-02-22T23:45:28Z</time>
      </trkpt>
      <trkpt lat="48.3881" lon="2.54099">
        <ele>118</ele>
        <time>2016-02-22T23:47:28Z</time>
      </trkpt>
      <trkpt lat="48.38813" lon="2.54078">
        <ele>118</ele>
        <time>2016-02-22T23:49:28Z</time>
      </trkpt>
      <trkpt lat="48.38818" lon="2.54048">
        <ele>118</ele>
        <time>2016-02-22T23:51:28Z</time>
      </trkpt>
      <trkpt lat="48.38827" lon="2.54024">
        <ele>119</ele>
        <time>2016-02-22T23:53:28Z</time>
      </trkpt>
      <trkpt lat="48.38837" lon="2.5398">
        <ele>119</ele>
        <time>2016-02-22T23:55:28Z</time>
      </trkpt>
      <trkpt lat="48.38844" lon="2.53968">
        <ele>118</ele>
        <time>2016-02-22T23:57:28Z</time>
      </trkpt>
      <trkpt lat="48.38854" lon="2.5395">
        <ele>117</ele>
        <time>2016-02-22T23:59:28Z</time>
      </trkpt>
      <trkpt lat="48.38866" lon="2.53932">
        <ele>116</ele>
        <time>2016-02-23T00:01:28Z</time>
      </trkpt>
      <trkpt lat="48.38877" lon="2.5394">
        <ele>114</ele>
        <time>2016-02-23T00:03:28Z</time>
      </trkpt>
      <trkpt lat="48.3888" lon="2.53948">
        <ele>113</ele>
        <time>2016-02-23T00:05:28Z</time>
      </trkpt>
      <trkpt lat="48.38885" lon="2.53951">
        <ele>112</ele>
        <time>2016-02-23T00:07:28Z</time>
      </trkpt>
      <trkpt lat="48.38891" lon="2.53957">
        <ele>111</ele>
        <time>2016-02-23T00:09:28Z</time>
      </trkpt>
      <trkpt lat="48.38894" lon="2.53964">
        <ele>110</ele>
        <time>2016-02-23T00:11:28Z</time>
      </trkpt>
      <trkpt lat="48.38896" lon="2.53972">
        <ele>110</ele>
        <time>2016-02-23T00:13:28Z</time>
      </trkpt>
      <trkpt lat="48.38905" lon="2.53975">
        <ele>108</ele>
        <time>2016-02-23T00:15:28Z</time>
      </trkpt>
      <trkpt lat="48.38911" lon="2.53983">
        <ele>106</ele>
        <time>2016-02-23T00:17:28Z</time>
      </trkpt>
      <trkpt lat="48.38919" lon="2.53989">
        <ele>105</ele>
        <time>2016-02-23T00:19:28Z</time>
      </trkpt>
      <trkpt lat="48.38925" lon="2.54002">
        <ele>103</ele>
        <time>2016-02-23T00:21:28Z</time>
      </trkpt>
      <trkpt lat="48.38929" lon="2.54012">
        <ele>102</ele>
        <time>2016-02-23T00:23:28Z</time>
      </trkpt>
      <trkpt lat="48.38933" lon="2.54016">
        <ele>101</ele>
        <time>2016-02-23T00:25:28Z</time>
      </trkpt>
      <trkpt lat="48.38945" lon="2.54022">
        <ele>99</ele>
        <time>2016-02-23T00:27:28Z</time>
      </trkpt>
      <trkpt lat="48.38954" lon="2.54026">
        <ele>97</ele>
        <time>2016-02-23T00:29:28Z</time>
      </trkpt>
      <trkpt lat="48.38968" lon="2.54026">
        <ele>95</ele>
        <time>2016-02-23T00:31:28Z</time>
      </trkpt>
      <trkpt lat="48.38965" lon="2.5404">
        <ele>95</ele>
        <time>2016-02-23T00:33:28Z</time>
      </trkpt>
      <trkpt lat="48.38961" lon="2.54061">
        <ele>95</ele>
        <time>2016-02-23T00:35:28Z</time>
      </trkpt>
      <trkpt lat="48.38954" lon="2.54082">
        <ele>95</ele>
        <time>2016-02-23T00:37:28Z</time>
      </trkpt>
      <trkpt lat="48.38941" lon="2.54112">
        <ele>95</ele>
        <time>2016-02-23T00:39:28Z</time>
      </trkpt>
      <trkpt lat="48.38929" lon="2.54213">
        <ele>91</ele>
        <time>2016-02-23T00:41:28Z</time>
      </trkpt>
      <trkpt lat="48.38919" lon="2.54271">
        <ele>89</ele>
        <time>2016-02-23T00:43:28Z</time>
      </trkpt>
      <trkpt lat="48.38915" lon="2.54301">
        <ele>90</ele>
        <time>2016-02-23T00:45:28Z</time>
      </trkpt>
      <trkpt lat="48.38913" lon="2.54325">
        <ele>91</ele>
        <time>2016-02-23T00:47:28Z</time>
      </trkpt>
      <trkpt lat="48.38924" lon="2.54338">
        <ele>90</ele>
        <time>2016-02-23T00:49:28Z</time>
      </trkpt>
      <trkpt lat="48.38933" lon="2.54349">
        <ele>89</ele>
        <time>2016-02-23T00:51:28Z</time>
      </trkpt>
      <trkpt lat="48.38941" lon="2.54355">
        <ele>89</ele>
        <time>2016-02-23T00:53:28Z</time>
      </trkpt>
      <trkpt lat="48.38952" lon="2.54351">
        <ele>89</ele>
        <time>2016-02-23T00:55:28Z</time>
      </trkpt>
      <trkpt lat="48.38964" lon="2.54361">
        <ele>88</ele>
        <time>2016-02-23T00:57:28Z</time>
      </trkpt>
      <trkpt lat="48.38987" lon="2.54399">
        <ele>87</ele>
        <time>2016-02-23T00:59:28Z</time>
      </trkpt>
      <trkpt lat="48.39014" lon="2.54448">
        <ele>86</ele>
        <time>2016-02-23T01:01:28Z</time>
      </trkpt>
      <trkpt lat="48.39027" lon="2.54469">
        <ele>86</ele>
        <time>2016-02-23T01:03:28Z</time>
      </trkpt>
      <trkpt lat="48.39037" lon="2.54492">
        <ele>86</ele>
        <time>2016-02-23T01:05:28Z</time>
      </trkpt>
      <trkpt lat="48.39043" lon="2.54503">
        <ele>85</ele>
        <time>2016-02-23T01:07:28Z</time>
      </trkpt>
      <trkpt lat="48.39069" lon="2.54533">
        <ele>85</ele>
        <time>2016-02-23T01:09:28Z</time>
      </trkpt>
      <trkpt lat="48.39074" lon="2.54548">
        <ele>84</ele>
        <time>2016-02-23T01:11:28Z</time>
      </trkpt>
      <trkpt lat="48.39078" lon="2.54573">
        <ele>83</ele>
        <time>2016-02-23T01:13:28Z</time>
      </trkpt>
      <trkpt lat="48.39086" lon="2.54591">
        <ele>83</ele>
        <time>2016-02-23T01:15:28Z</time>
      </trkpt>
      <trkpt lat="48.39092" lon="2.54608">
        <ele>83</ele>
        <time>2016-02-23T01:17:28Z</time>
      </trkpt>
      <trkpt lat="48.39097" lon="2.54641">
        <ele>83</ele>
        <time>2016-02-23T01:19:28Z</time>
      </trkpt>
      <trkpt lat="48.39097" lon="2.54662">
        <ele>82</ele>
        <time>2016-02-23T01:21:28Z</time>
      </trkpt>
      <trkpt lat="48.39094" lon="2.54692">
        <ele>82</ele>
        <time>2016-02-23T01:23:28Z</time>
      </trkpt>
      <trkpt lat="48.3909" lon="2.54722">
        <ele>82</ele>
        <time>2016-02-23T01:25:28Z</time>
      </trkpt>
      <trkpt lat="48.39083" lon="2.54745">
        <ele>82</ele>
        <time>2016-02-23T01:27:28Z</time>
      </trkpt>
      <trkpt lat="48.39083" lon="2.54763">
        <ele>82</ele>
        <time>2016-02-23T01:29:28Z</time>
      </trkpt>
      <trkpt lat="48.39088" lon="2.54784">
        <ele>81</ele>
        <time>2016-02-23T01:31:28Z</time>
      </trkpt>
      <trkpt lat="48.39085" lon="2.54816">
        <ele>80</ele>
        <time>2016-02-23T01:33:28Z</time>
      </trkpt>
      <trkpt lat="48.39081" lon="2.54847">
        <ele>79</ele>
        <time>2016-02-23T01:35:28Z</time>
      </trkpt>
      <trkpt lat="48.3908" lon="2.54861">
        <ele>79</ele>
        <time>2016-02-23T01:37:28Z</time>
      </trkpt>
      <trkpt lat="48.39094" lon="2.54879">
        <ele>79</ele>
        <time>2016-02-23T01:39:28Z</time>
      </trkpt>
      <trkpt lat="48.39096" lon="2.54895">
        <ele>78</ele>
        <time>2016-02-23T01:41:28Z</time>
      </trkpt>
      <trkpt lat="48.39094" lon="2.54916">
        <ele>77</ele>
        <time>2016-02-23T01:43:28Z</time>
      </trkpt>
      <trkpt lat="48.39091" lon="2.54941">
        <ele>78</ele>
        <time>2016-02-23T01:45:28Z</time>
      </trkpt>
      <trkpt lat="48.39082" lon="2.54963">
        <ele>78</ele>
        <time>2016-02-23T01:47:28Z</time>
      </trkpt>
      <trkpt lat="48.39076" lon="2.54987">
        <ele>78</ele>
        <time>2016-02-23T01:49:28Z</time>
      </trkpt>
      <trkpt lat="48.39068" lon="2.55017">
        <ele>78</ele>
        <time>2016-02-23T01:51:28Z</time>
      </trkpt>
      <trkpt lat="48.39068" lon="2.55037">
        <ele>79</ele>
        <time>2016-02-23T01:53:28Z</time>
      </trkpt>
      <trkpt lat="48.39068" lon="2.55067">
        <ele>79</ele>
        <time>2016-02-23T01:55:28Z</time>
      </trkpt>
      <trkpt lat="48.39068" lon="2.55122">
        <ele>79</ele>
        <time>2016-02-23T01:57:28Z</time>
      </trkpt>
      <trkpt lat="48.39052" lon="2.55213">
        <ele>78</ele>
        <time>2016-02-23T01:59:28Z</time>
      </trkpt>
      <trkpt lat="48.39048" lon="2.55288">
        <ele>77</ele>
        <time>2016-02-23T02:01:28Z</time>
      </trkpt>
    </trkseg>
  </trk>
</gpx>